MOUNT RAINIER
GEOLOGY & WEATHER
Hello guest! [ Log In ]
csv data for Nisqually River at Longmire

Nisqually River at Longmire

Date Range to view:
 
[ Graphical View | Weather History ]

GMT Datetime,Local Datetime,Stage (ft),Rainfall (in),Turbidity (ntu),Air Temperature (°C),Dew Point Temperature (°C),Water Temperature (°C),Enclosure Temperature (°C),Turbidity Temperature (°C),10-hour Fuel Temperature (°C),Relative Humidity (%),,Water Conductivity (μS/cm),Air Level (ft),Water Level (psi),Battery (V)
2023-09-17 07:00:00,2023-09-17 00:00:00,-999.0000,49.09,-999.00,13.2000,9.2555,-999.0000,14.5,-999,13.2,77.0,,-999.0000,30.7650,-999.0000,12.7
2023-09-17 07:15:00,2023-09-17 00:15:00,-999.0000,49.09,-999.00,13.2000,9.2555,-999.0000,14.3,-999,13.1,77.0,,-999.0000,30.7650,-999.0000,12.7
2023-09-17 07:30:00,2023-09-17 00:30:00,-999.0000,49.09,-999.00,13.2000,9.2555,-999.0000,13.9,-999,13.1,77.0,,-999.0000,30.7620,-999.0000,12.7
2023-09-17 07:45:00,2023-09-17 00:45:00,-999.0000,49.09,-999.00,13.2000,9.2555,-999.0000,13.9,-999,13.1,77.0,,-999.0000,30.7690,-999.0000,12.7
2023-09-17 08:00:00,2023-09-17 01:00:00,-999.0000,49.09,-999.00,13.0000,9.2532,-999.0000,13.7,-999,12.9,78.0,,-999.0000,30.7650,-999.0000,12.7
2023-09-17 08:15:00,2023-09-17 01:15:00,-999.0000,49.09,-999.00,12.9000,9.3454,-999.0000,13.6,-999,12.8,79.0,,-999.0000,30.7620,-999.0000,12.7
2023-09-17 08:30:00,2023-09-17 01:30:00,-999.0000,49.09,-999.00,12.8000,9.2481,-999.0000,13.6,-999,12.7,79.0,,-999.0000,30.7620,-999.0000,12.7
2023-09-17 08:45:00,2023-09-17 01:45:00,-999.0000,49.09,-999.00,12.6000,9.0536,-999.0000,13.4,-999,12.6,79.0,,-999.0000,30.7590,-999.0000,12.7
2023-09-17 09:00:00,2023-09-17 02:00:00,-999.0000,49.09,-999.00,12.4000,9.4125,-999.0000,13.4,-999,12.5,82.0,,-999.0000,30.7620,-999.0000,12.7
2023-09-17 09:15:00,2023-09-17 02:15:00,-999.0000,49.09,-999.00,12.1000,9.4776,-999.0000,13.2,-999,12.2,84.0,,-999.0000,30.7620,-999.0000,12.7
2023-09-17 09:30:00,2023-09-17 02:30:00,-999.0000,49.09,-999.00,12.0000,9.3797,-999.0000,13.0,-999,12.1,84.0,,-999.0000,30.7650,-999.0000,12.6
2023-09-17 09:45:00,2023-09-17 02:45:00,-999.0000,49.09,-999.00,11.9000,9.2817,-999.0000,12.9,-999,11.9,84.0,,-999.0000,30.7590,-999.0000,12.7
2023-09-17 10:00:00,2023-09-17 03:00:00,-999.0000,49.09,-999.00,11.4000,9.3125,-999.0000,12.7,-999,11.6,87.0,,-999.0000,30.7650,-999.0000,12.7
2023-09-17 10:15:00,2023-09-17 03:15:00,-999.0000,49.09,-999.00,11.1000,9.0174,-999.0000,12.5,-999,11.3,87.0,,-999.0000,30.7650,-999.0000,12.6
2023-09-17 10:30:00,2023-09-17 03:30:00,-999.0000,49.09,-999.00,11.1000,9.0174,-999.0000,12.3,-999,11.1,87.0,,-999.0000,30.7590,-999.0000,12.6
2023-09-17 10:45:00,2023-09-17 03:45:00,-999.0000,49.09,-999.00,11.0000,8.9191,-999.0000,12.2,-999,11.0,87.0,,-999.0000,30.7520,-999.0000,12.6
2023-09-17 11:00:00,2023-09-17 04:00:00,-999.0000,49.09,-999.00,10.9000,8.8207,-999.0000,12.0,-999,10.9,87.0,,-999.0000,30.7520,-999.0000,12.6
2023-09-17 11:15:00,2023-09-17 04:15:00,-999.0000,49.09,-999.00,10.9000,8.8207,-999.0000,11.8,-999,10.7,87.0,,-999.0000,30.7490,-999.0000,12.6
2023-09-17 11:30:00,2023-09-17 04:30:00,-999.0000,49.09,-999.00,10.8000,8.8916,-999.0000,11.6,-999,10.6,88.0,,-999.0000,30.7490,-999.0000,12.6
2023-09-17 11:45:00,2023-09-17 04:45:00,-999.0000,49.09,-999.00,10.6000,8.6945,-999.0000,11.5,-999,10.5,88.0,,-999.0000,30.7450,-999.0000,12.6
2023-09-17 12:00:00,2023-09-17 05:00:00,-999.0000,49.09,-999.00,10.6000,8.6945,-999.0000,11.3,-999,10.5,88.0,,-999.0000,30.7520,-999.0000,12.6
2023-09-17 12:15:00,2023-09-17 05:15:00,-999.0000,49.09,-999.00,10.4000,8.8299,-999.0000,11.1,-999,10.4,90.0,,-999.0000,30.7550,-999.0000,12.6
2023-09-17 12:30:00,2023-09-17 05:30:00,-999.0000,49.09,-999.00,9.9000,8.4992,-999.0000,11.1,-999,10.2,91.0,,-999.0000,30.7650,-999.0000,12.6
2023-09-17 12:45:00,2023-09-17 05:45:00,-999.0000,49.09,-999.00,9.7000,8.4627,-999.0000,10.9,-999,10.0,92.0,,-999.0000,30.7650,-999.0000,12.6
2023-09-17 13:00:00,2023-09-17 06:00:00,-999.0000,49.09,-999.00,9.7000,8.4627,-999.0000,10.8,-999,10.0,92.0,,-999.0000,30.7650,-999.0000,12.6
2023-09-17 13:15:00,2023-09-17 06:15:00,-999.0000,49.09,-999.00,9.9000,8.6607,-999.0000,10.8,-999,10.1,92.0,,-999.0000,30.7620,-999.0000,12.6
2023-09-17 13:30:00,2023-09-17 06:30:00,-999.0000,49.09,-999.00,10.0000,8.5981,-999.0000,10.8,-999,10.2,91.0,,-999.0000,30.7590,-999.0000,12.6
2023-09-17 13:45:00,2023-09-17 06:45:00,-999.0000,49.09,-999.00,10.0000,8.5981,-999.0000,10.8,-999,10.1,91.0,,-999.0000,30.7590,-999.0000,12.6
2023-09-17 14:00:00,2023-09-17 07:00:00,-999.0000,49.09,-999.00,9.9000,8.4992,-999.0000,10.6,-999,9.9,91.0,,-999.0000,30.7550,-999.0000,12.6
2023-09-17 14:15:00,2023-09-17 07:15:00,-999.0000,49.09,-999.00,9.9000,8.4992,-999.0000,10.6,-999,9.9,91.0,,-999.0000,30.7620,-999.0000,12.6
2023-09-17 14:30:00,2023-09-17 07:30:00,-999.0000,49.09,-999.00,9.9000,8.6607,-999.0000,10.6,-999,9.9,92.0,,-999.0000,30.7650,-999.0000,12.6
2023-09-17 14:45:00,2023-09-17 07:45:00,-999.0000,49.09,-999.00,9.8000,8.5617,-999.0000,10.6,-999,10.0,92.0,,-999.0000,30.7720,-999.0000,12.6
2023-09-17 15:00:00,2023-09-17 08:00:00,-999.0000,49.09,-999.00,10.0000,8.5981,-999.0000,10.6,-999,10.1,91.0,,-999.0000,30.7750,-999.0000,12.6
2023-09-17 15:15:00,2023-09-17 08:15:00,-999.0000,49.09,-999.00,10.2000,8.7959,-999.0000,10.6,-999,10.4,91.0,,-999.0000,30.7720,-999.0000,12.6
2023-09-17 15:30:00,2023-09-17 08:30:00,-999.0000,49.09,-999.00,10.2000,8.7959,-999.0000,10.8,-999,10.4,91.0,,-999.0000,30.7750,-999.0000,12.7
2023-09-17 15:45:00,2023-09-17 08:45:00,-999.0000,49.09,-999.00,10.3000,8.8948,-999.0000,10.9,-999,10.6,91.0,,-999.0000,30.7820,-999.0000,12.7
2023-09-17 16:00:00,2023-09-17 09:00:00,-999.0000,49.09,-999.00,10.6000,9.0274,-999.0000,11.3,-999,10.9,90.0,,-999.0000,30.7860,-999.0000,12.7
2023-09-17 16:15:00,2023-09-17 09:15:00,-999.0000,49.09,-999.00,10.7000,8.9605,-999.0000,11.6,-999,11.1,89.0,,-999.0000,30.7790,-999.0000,12.8
2023-09-17 16:30:00,2023-09-17 09:30:00,-999.0000,49.09,-999.00,11.2000,9.2856,-999.0000,12.0,-999,11.5,88.0,,-999.0000,30.7820,-999.0000,12.9
2023-09-17 16:45:00,2023-09-17 09:45:00,-999.0000,49.09,-999.00,11.2000,9.1158,-999.0000,12.3,-999,11.7,87.0,,-999.0000,30.7860,-999.0000,13.1
2023-09-17 17:00:00,2023-09-17 10:00:00,-999.0000,49.09,-999.00,11.7000,9.2615,-999.0000,12.9,-999,12.2,85.0,,-999.0000,30.7890,-999.0000,13.2
2023-09-17 17:15:00,2023-09-17 10:15:00,-999.0000,49.09,-999.00,12.6000,9.6078,-999.0000,13.7,-999,12.7,82.0,,-999.0000,30.7920,-999.0000,13.4
2023-09-17 17:30:00,2023-09-17 10:30:00,-999.0000,49.09,-999.00,12.8000,9.4352,-999.0000,14.5,-999,12.9,80.0,,-999.0000,30.7990,-999.0000,13.5
2023-09-17 17:45:00,2023-09-17 10:45:00,-999.0000,49.09,-999.00,13.3000,9.5444,-999.0000,15.3,-999,13.5,78.0,,-999.0000,30.7960,-999.0000,14.0
2023-09-17 18:00:00,2023-09-17 11:00:00,-999.0000,49.09,-999.00,14.4000,10.0246,-999.0000,16.6,-999,14.2,75.0,,-999.0000,30.7960,-999.0000,14.3
2023-09-17 18:15:00,2023-09-17 11:15:00,-999.0000,49.09,-999.00,14.6000,9.8138,-999.0000,18.3,-999,14.8,73.0,,-999.0000,30.7960,-999.0000,13.6
2023-09-17 18:30:00,2023-09-17 11:30:00,-999.0000,49.09,-999.00,15.1000,9.4539,-999.0000,20.1,-999,15.6,69.0,,-999.0000,30.8060,-999.0000,13.7
2023-09-17 18:45:00,2023-09-17 11:45:00,-999.0000,49.09,-999.00,15.5000,8.9482,-999.0000,21.8,-999,15.9,65.0,,-999.0000,30.7990,-999.0000,13.6
2023-09-17 19:00:00,2023-09-17 12:00:00,-999.0000,49.09,-999.00,16.4000,9.0998,-999.0000,23.4,-999,17.4,62.0,,-999.0000,30.7920,-999.0000,13.5
2023-09-17 19:15:00,2023-09-17 12:15:00,-999.0000,49.09,-999.00,17.3000,8.1724,-999.0000,25.0,-999,19.6,55.0,,-999.0000,30.7890,-999.0000,13.9
2023-09-17 19:30:00,2023-09-17 12:30:00,-999.0000,49.09,-999.00,17.5000,8.3586,-999.0000,26.2,-999,19.8,55.0,,-999.0000,30.7860,-999.0000,13.7
2023-09-17 19:45:00,2023-09-17 12:45:00,-999.0000,49.09,-999.00,17.9000,7.9037,-999.0000,27.1,-999,20.8,52.0,,-999.0000,30.7790,-999.0000,14.1
2023-09-17 20:00:00,2023-09-17 13:00:00,-999.0000,49.09,-999.00,18.3000,7.0990,-999.0000,27.8,-999,20.9,48.0,,-999.0000,30.7750,-999.0000,13.6
2023-09-17 20:15:00,2023-09-17 13:15:00,-999.0000,49.09,-999.00,17.7000,7.4340,-999.0000,27.6,-999,19.8,51.0,,-999.0000,30.7790,-999.0000,13.7
2023-09-17 20:30:00,2023-09-17 13:30:00,-999.0000,49.09,-999.00,18.0000,7.1250,-999.0000,26.8,-999,20.0,49.0,,-999.0000,30.7790,-999.0000,13.9
2023-09-17 20:45:00,2023-09-17 13:45:00,-999.0000,49.09,-999.00,17.7000,6.2434,-999.0000,26.2,-999,19.6,47.0,,-999.0000,30.7750,-999.0000,13.5
2023-09-17 21:00:00,2023-09-17 14:00:00,-999.0000,49.09,-999.00,17.7000,5.6142,-999.0000,25.4,-999,18.7,45.0,,-999.0000,30.7750,-999.0000,14.3
2023-09-17 21:15:00,2023-09-17 14:15:00,-999.0000,49.09,-999.00,17.4000,5.0181,-999.0000,24.3,-999,18.3,44.0,,-999.0000,30.7750,-999.0000,14.2
2023-09-17 21:30:00,2023-09-17 14:30:00,-999.0000,49.09,-999.00,17.5000,4.7788,-999.0000,23.4,-999,18.3,43.0,,-999.0000,30.7750,-999.0000,13.9
2023-09-17 21:45:00,2023-09-17 14:45:00,-999.0000,49.09,-999.00,17.5000,4.4419,-999.0000,22.7,-999,18.6,42.0,,-999.0000,30.7750,-999.0000,13.9
2023-09-17 22:00:00,2023-09-17 15:00:00,-999.0000,49.09,-999.00,17.4000,4.6883,-999.0000,22.4,-999,18.4,43.0,,-999.0000,30.7720,-999.0000,14.0
2023-09-17 22:15:00,2023-09-17 15:15:00,-999.0000,49.09,-999.00,17.2000,4.8367,-999.0000,22.0,-999,18.0,44.0,,-999.0000,30.7720,-999.0000,14.3
2023-09-17 22:30:00,2023-09-17 15:30:00,-999.0000,49.09,-999.00,17.3000,4.2614,-999.0000,21.7,-999,18.1,42.0,,-999.0000,30.7690,-999.0000,14.3
2023-09-17 22:45:00,2023-09-17 15:45:00,-999.0000,49.09,-999.00,17.5000,4.7788,-999.0000,21.5,-999,18.7,43.0,,-999.0000,30.7650,-999.0000,13.6
2023-09-17 23:00:00,2023-09-17 16:00:00,-999.0000,49.09,-999.00,18.4000,4.9075,-999.0000,21.8,-999,19.5,41.0,,-999.0000,30.7620,-999.0000,13.7
2023-09-17 23:15:00,2023-09-17 16:15:00,-999.0000,49.09,-999.00,18.6000,4.0000,-999.0000,23.1,-999,19.5,38.0,,-999.0000,30.7590,-999.0000,14.2
2023-09-17 23:30:00,2023-09-17 16:30:00,-999.0000,49.09,-999.00,18.6000,5.0873,-999.0000,23.4,-999,19.3,41.0,,-999.0000,30.7590,-999.0000,14.0
2023-09-17 23:45:00,2023-09-17 16:45:00,-999.0000,49.09,-999.00,18.4000,5.5929,-999.0000,23.1,-999,19.2,43.0,,-999.0000,30.7550,-999.0000,14.2
2023-09-18 00:00:00,2023-09-17 17:00:00,-999.0000,49.09,-999.00,18.1000,5.9779,-999.0000,22.5,-999,18.7,45.0,,-999.0000,30.7550,-999.0000,13.9
2023-09-18 00:15:00,2023-09-17 17:15:00,-999.0000,49.09,-999.00,17.5000,6.3660,-999.0000,22.0,-999,18.2,48.0,,-999.0000,30.7520,-999.0000,14.1
2023-09-18 00:30:00,2023-09-17 17:30:00,-999.0000,49.09,-999.00,17.2000,7.2562,-999.0000,21.3,-999,17.7,52.0,,-999.0000,30.7490,-999.0000,14.4
2023-09-18 00:45:00,2023-09-17 17:45:00,-999.0000,49.09,-999.00,17.0000,7.8930,-999.0000,20.8,-999,17.4,55.0,,-999.0000,30.7550,-999.0000,14.0
2023-09-18 01:00:00,2023-09-17 18:00:00,-999.0000,49.09,-999.00,16.7000,8.3951,-999.0000,20.1,-999,17.0,58.0,,-999.0000,30.7550,-999.0000,13.2
2023-09-18 01:15:00,2023-09-17 18:15:00,-999.0000,49.09,-999.00,16.6000,8.3013,-999.0000,19.5,-999,16.8,58.0,,-999.0000,30.7520,-999.0000,13.0
2023-09-18 01:30:00,2023-09-17 18:30:00,-999.0000,49.09,-999.00,16.4000,8.3659,-999.0000,19.0,-999,16.6,59.0,,-999.0000,30.7490,-999.0000,12.9
2023-09-18 01:45:00,2023-09-17 18:45:00,-999.0000,49.09,-999.00,16.1000,8.5759,-999.0000,18.7,-999,16.2,61.0,,-999.0000,30.7490,-999.0000,12.9
2023-09-18 02:00:00,2023-09-17 19:00:00,-999.0000,49.09,-999.00,15.9000,8.3874,-999.0000,18.3,-999,15.9,61.0,,-999.0000,30.7490,-999.0000,12.8
2023-09-18 02:15:00,2023-09-17 19:15:00,-999.0000,49.09,-999.00,15.7000,8.4386,-999.0000,17.8,-999,15.6,62.0,,-999.0000,30.7550,-999.0000,12.8
2023-09-18 02:30:00,2023-09-17 19:30:00,-999.0000,49.09,-999.00,15.4000,8.3911,-999.0000,17.4,-999,15.4,63.0,,-999.0000,30.7520,-999.0000,12.8
2023-09-18 02:45:00,2023-09-17 19:45:00,-999.0000,49.09,-999.00,15.2000,8.6632,-999.0000,16.9,-999,15.2,65.0,,-999.0000,30.7490,-999.0000,12.8
2023-09-18 03:00:00,2023-09-17 20:00:00,-999.0000,49.09,-999.00,15.0000,8.4732,-999.0000,16.7,-999,14.9,65.0,,-999.0000,30.7490,-999.0000,12.8
2023-09-18 03:15:00,2023-09-17 20:15:00,-999.0000,49.09,-999.00,14.8000,8.5085,-999.0000,16.4,-999,14.7,66.0,,-999.0000,30.7490,-999.0000,12.8
2023-09-18 03:30:00,2023-09-17 20:30:00,-999.0000,49.09,-999.00,14.7000,8.6355,-999.0000,16.2,-999,14.6,67.0,,-999.0000,30.7490,-999.0000,12.8
2023-09-18 03:45:00,2023-09-17 20:45:00,-999.0000,49.09,-999.00,14.6000,8.5402,-999.0000,15.9,-999,14.4,67.0,,-999.0000,30.7550,-999.0000,12.8
2023-09-18 04:00:00,2023-09-17 21:00:00,-999.0000,49.09,-999.00,14.3000,8.4727,-999.0000,15.5,-999,14.2,68.0,,-999.0000,30.7520,-999.0000,12.8
2023-09-18 04:15:00,2023-09-17 21:15:00,-999.0000,49.09,-999.00,14.1000,8.4971,-999.0000,15.3,-999,14.0,69.0,,-999.0000,30.7520,-999.0000,12.7
2023-09-18 04:30:00,2023-09-17 21:30:00,-999.0000,49.09,-999.00,13.8000,8.2100,-999.0000,15.2,-999,13.6,69.0,,-999.0000,30.7520,-999.0000,12.7
2023-09-18 04:45:00,2023-09-17 21:45:00,-999.0000,49.09,-999.00,13.5000,8.3438,-999.0000,14.8,-999,13.3,71.0,,-999.0000,30.7520,-999.0000,12.7
2023-09-18 05:00:00,2023-09-17 22:00:00,-999.0000,49.09,-999.00,13.1000,8.3689,-999.0000,14.5,-999,13.0,73.0,,-999.0000,30.7450,-999.0000,12.7
2023-09-18 05:15:00,2023-09-17 22:15:00,-999.0000,49.09,-999.00,12.9000,8.1762,-999.0000,14.3,-999,12.8,73.0,,-999.0000,30.7450,-999.0000,12.7
2023-09-18 05:30:00,2023-09-17 22:30:00,-999.0000,49.09,-999.00,12.7000,8.3818,-999.0000,14.1,-999,12.6,75.0,,-999.0000,30.7450,-999.0000,12.7
2023-09-18 05:45:00,2023-09-17 22:45:00,-999.0000,49.09,-999.00,12.5000,8.1884,-999.0000,13.7,-999,12.4,75.0,,-999.0000,30.7520,-999.0000,12.7
2023-09-18 06:00:00,2023-09-17 23:00:00,-999.0000,49.09,-999.00,12.3000,8.1901,-999.0000,13.6,-999,12.1,76.0,,-999.0000,30.7490,-999.0000,12.7
2023-09-18 06:15:00,2023-09-17 23:15:00,-999.0000,49.09,-999.00,12.0000,8.0920,-999.0000,13.4,-999,11.9,77.0,,-999.0000,30.7420,-999.0000,12.7
2023-09-18 06:30:00,2023-09-17 23:30:00,-999.0000,49.09,-999.00,11.9000,8.1851,-999.0000,13.0,-999,11.7,78.0,,-999.0000,30.7420,-999.0000,12.7
2023-09-18 06:45:00,2023-09-17 23:45:00,-999.0000,49.09,-999.00,11.7000,7.9908,-999.0000,12.9,-999,11.6,78.0,,-999.0000,30.7450,-999.0000,12.7
2023-09-18 07:00:00,2023-09-18 00:00:00,-999.0000,49.09,-999.00,11.6000,7.8937,-999.0000,12.7,-999,11.4,78.0,,-999.0000,30.7450,-999.0000,12.7
2023-09-18 07:15:00,2023-09-18 00:15:00,-999.0000,49.09,-999.00,11.3000,7.7894,-999.0000,12.3,-999,11.1,79.0,,-999.0000,30.7450,-999.0000,12.7
2023-09-18 07:30:00,2023-09-18 00:30:00,-999.0000,49.09,-999.00,11.1000,7.7794,-999.0000,12.2,-999,10.9,80.0,,-999.0000,30.7490,-999.0000,12.7
2023-09-18 07:45:00,2023-09-18 00:45:00,-999.0000,49.09,-999.00,10.9000,7.7669,-999.0000,12.0,-999,10.7,81.0,,-999.0000,30.7520,-999.0000,12.7
2023-09-18 08:00:00,2023-09-18 01:00:00,-999.0000,49.09,-999.00,10.7000,7.5718,-999.0000,11.8,-999,10.5,81.0,,-999.0000,30.7450,-999.0000,12.7
2023-09-18 08:15:00,2023-09-18 01:15:00,-999.0000,49.09,-999.00,10.6000,7.6542,-999.0000,11.6,-999,10.4,82.0,,-999.0000,30.7520,-999.0000,12.7
2023-09-18 08:30:00,2023-09-18 01:30:00,-999.0000,49.09,-999.00,10.5000,7.5565,-999.0000,11.5,-999,10.4,82.0,,-999.0000,30.7490,-999.0000,12.7
2023-09-18 08:45:00,2023-09-18 01:45:00,-999.0000,49.09,-999.00,10.5000,7.7343,-999.0000,11.3,-999,10.3,83.0,,-999.0000,30.7550,-999.0000,12.7
2023-09-18 09:00:00,2023-09-18 02:00:00,-999.0000,49.09,-999.00,10.5000,7.7343,-999.0000,11.1,-999,10.4,83.0,,-999.0000,30.7550,-999.0000,12.6
2023-09-18 09:15:00,2023-09-18 02:15:00,-999.0000,49.09,-999.00,10.6000,7.8321,-999.0000,11.1,-999,10.5,83.0,,-999.0000,30.7490,-999.0000,12.6
2023-09-18 09:30:00,2023-09-18 02:30:00,-999.0000,49.09,-999.00,10.6000,7.8321,-999.0000,10.9,-999,10.4,83.0,,-999.0000,30.7420,-999.0000,12.6
2023-09-18 09:45:00,2023-09-18 02:45:00,-999.0000,49.09,-999.00,10.6000,7.8321,-999.0000,10.9,-999,10.5,83.0,,-999.0000,30.7450,-999.0000,12.6
2023-09-18 10:00:00,2023-09-18 03:00:00,-999.0000,49.09,-999.00,10.7000,7.9300,-999.0000,10.9,-999,10.6,83.0,,-999.0000,30.7390,-999.0000,12.6
2023-09-18 10:15:00,2023-09-18 03:15:00,-999.0000,49.09,-999.00,10.8000,8.0278,-999.0000,11.1,-999,10.7,83.0,,-999.0000,30.7420,-999.0000,12.6
2023-09-18 10:30:00,2023-09-18 03:30:00,-999.0000,49.09,-999.00,10.9000,8.1256,-999.0000,11.1,-999,10.8,83.0,,-999.0000,30.7420,-999.0000,12.6
2023-09-18 10:45:00,2023-09-18 03:45:00,-999.0000,49.09,-999.00,11.0000,8.4001,-999.0000,11.1,-999,10.9,84.0,,-999.0000,30.7390,-999.0000,12.6
2023-09-18 11:00:00,2023-09-18 04:00:00,-999.0000,49.09,-999.00,11.2000,8.4191,-999.0000,11.1,-999,11.1,83.0,,-999.0000,30.7390,-999.0000,12.6
2023-09-18 11:15:00,2023-09-18 04:15:00,-999.0000,49.09,-999.00,11.3000,8.3380,-999.0000,11.5,-999,11.3,82.0,,-999.0000,30.7350,-999.0000,12.6
2023-09-18 11:30:00,2023-09-18 04:30:00,-999.0000,49.09,-999.00,11.4000,8.4357,-999.0000,11.5,-999,11.3,82.0,,-999.0000,30.7350,-999.0000,12.6
2023-09-18 11:45:00,2023-09-18 04:45:00,-999.0000,49.09,-999.00,11.4000,8.4357,-999.0000,11.5,-999,11.3,82.0,,-999.0000,30.7290,-999.0000,12.6
2023-09-18 12:00:00,2023-09-18 05:00:00,-999.0000,49.09,-999.00,11.4000,8.4357,-999.0000,11.6,-999,11.4,82.0,,-999.0000,30.7290,-999.0000,12.6
2023-09-18 12:15:00,2023-09-18 05:15:00,-999.0000,49.09,-999.00,11.7000,8.5473,-999.0000,11.6,-999,11.5,81.0,,-999.0000,30.7350,-999.0000,12.6
2023-09-18 12:30:00,2023-09-18 05:30:00,-999.0000,49.09,-999.00,12.0000,8.8399,-999.0000,11.8,-999,11.8,81.0,,-999.0000,30.7350,-999.0000,12.6
2023-09-18 12:45:00,2023-09-18 05:45:00,-999.0000,49.09,-999.00,11.8000,9.0060,-999.0000,11.8,-999,11.8,83.0,,-999.0000,30.7350,-999.0000,12.6
2023-09-18 13:00:00,2023-09-18 06:00:00,-999.0000,49.09,-999.00,11.6000,9.1635,-999.0000,12.0,-999,11.6,85.0,,-999.0000,30.7390,-999.0000,12.6
2023-09-18 13:15:00,2023-09-18 06:15:00,-999.0000,49.09,-999.00,11.6000,9.5093,-999.0000,12.2,-999,11.6,87.0,,-999.0000,30.7450,-999.0000,12.6
2023-09-18 13:30:00,2023-09-18 06:30:00,-999.0000,49.09,-999.00,11.6000,9.5093,-999.0000,12.2,-999,11.6,87.0,,-999.0000,30.7520,-999.0000,12.6
2023-09-18 13:45:00,2023-09-18 06:45:00,-999.0000,49.09,-999.00,11.3000,10.0470,-999.0000,12.0,-999,11.3,92.0,,-999.0000,30.7590,-999.0000,12.6
2023-09-18 14:00:00,2023-09-18 07:00:00,-999.0000,49.09,-999.00,11.0000,10.2296,-999.0000,12.0,-999,10.9,95.0,,-999.0000,30.7590,-999.0000,12.6
2023-09-18 14:15:00,2023-09-18 07:15:00,-999.0000,49.09,-999.00,10.9000,10.2869,-999.0000,11.8,-999,10.9,96.0,,-999.0000,30.7590,-999.0000,12.6
2023-09-18 14:30:00,2023-09-18 07:30:00,-999.0000,49.09,-999.00,10.7000,10.2430,-999.0000,11.6,-999,10.7,97.0,,-999.0000,30.7650,-999.0000,12.6
2023-09-18 14:45:00,2023-09-18 07:45:00,-999.0000,49.09,-999.00,10.7000,10.3967,-999.0000,11.6,-999,10.6,98.0,,-999.0000,30.7690,-999.0000,12.6
2023-09-18 15:00:00,2023-09-18 08:00:00,-999.0000,49.09,-999.00,10.7000,10.3967,-999.0000,11.5,-999,10.7,98.0,,-999.0000,30.7650,-999.0000,12.6
2023-09-18 15:15:00,2023-09-18 08:15:00,-999.0000,49.09,-999.00,10.6000,10.2969,-999.0000,11.5,-999,10.7,98.0,,-999.0000,30.7690,-999.0000,12.6
2023-09-18 15:30:00,2023-09-18 08:30:00,-999.0000,49.09,-999.00,10.5000,10.1972,-999.0000,11.5,-999,10.6,98.0,,-999.0000,30.7720,-999.0000,12.6
2023-09-18 15:45:00,2023-09-18 08:45:00,-999.0000,49.09,-999.00,10.2000,10.0496,-999.0000,11.3,-999,10.4,99.0,,-999.0000,30.7750,-999.0000,12.6
2023-09-18 16:00:00,2023-09-18 09:00:00,-999.0000,49.09,-999.00,9.8000,9.4989,-999.0000,11.3,-999,10.1,98.0,,-999.0000,30.7790,-999.0000,12.6
2023-09-18 16:15:00,2023-09-18 09:15:00,-999.0000,49.09,-999.00,9.7000,9.2466,-999.0000,11.3,-999,9.8,97.0,,-999.0000,30.7890,-999.0000,12.6
2023-09-18 16:30:00,2023-09-18 09:30:00,-999.0000,49.09,-999.00,9.7000,8.9374,-999.0000,10.9,-999,9.8,95.0,,-999.0000,30.7890,-999.0000,12.6
2023-09-18 16:45:00,2023-09-18 09:45:00,-999.0000,49.09,-999.00,9.6000,8.6814,-999.0000,11.1,-999,9.6,94.0,,-999.0000,30.7960,-999.0000,12.7
2023-09-18 17:00:00,2023-09-18 10:00:00,-999.0000,49.09,-999.00,9.6000,8.6814,-999.0000,10.9,-999,9.6,94.0,,-999.0000,30.7960,-999.0000,12.7
2023-09-18 17:15:00,2023-09-18 10:15:00,-999.0000,49.09,-999.00,9.9000,8.6607,-999.0000,11.1,-999,9.9,92.0,,-999.0000,30.7920,-999.0000,12.8
2023-09-18 17:30:00,2023-09-18 10:30:00,-999.0000,49.09,-999.00,10.3000,8.8948,-999.0000,11.5,-999,10.2,91.0,,-999.0000,30.7890,-999.0000,13.0
2023-09-18 17:45:00,2023-09-18 10:45:00,-999.0000,49.09,-999.00,11.0000,9.2564,-999.0000,11.8,-999,10.7,89.0,,-999.0000,30.7890,-999.0000,13.4
2023-09-18 18:00:00,2023-09-18 11:00:00,-999.0000,49.09,-999.00,12.7000,9.1509,-999.0000,13.2,-999,11.8,79.0,,-999.0000,30.7890,-999.0000,14.5
2023-09-18 18:15:00,2023-09-18 11:15:00,-999.0000,49.09,-999.00,13.7000,8.1143,-999.0000,15.9,-999,13.0,69.0,,-999.0000,30.7890,-999.0000,13.7
2023-09-18 18:30:00,2023-09-18 11:30:00,-999.0000,49.09,-999.00,13.6000,7.1430,-999.0000,18.5,-999,13.3,65.0,,-999.0000,30.7860,-999.0000,13.7
2023-09-18 18:45:00,2023-09-18 11:45:00,-999.0000,49.09,-999.00,13.7000,6.7818,-999.0000,19.9,-999,13.8,63.0,,-999.0000,30.7860,-999.0000,13.7
2023-09-18 19:00:00,2023-09-18 12:00:00,-999.0000,49.09,-999.00,13.1000,5.5080,-999.0000,20.6,-999,13.7,60.0,,-999.0000,30.7890,-999.0000,13.9
2023-09-18 19:15:00,2023-09-18 12:15:00,-999.0000,49.09,-999.00,13.5000,5.8847,-999.0000,20.3,-999,14.0,60.0,,-999.0000,30.7920,-999.0000,13.7
2023-09-18 19:30:00,2023-09-18 12:30:00,-999.0000,49.09,-999.00,14.1000,6.2055,-999.0000,20.4,-999,16.2,59.0,,-999.0000,30.7960,-999.0000,13.6
2023-09-18 19:45:00,2023-09-18 12:45:00,-999.0000,49.09,-999.00,13.8000,5.6766,-999.0000,21.7,-999,16.8,58.0,,-999.0000,30.7960,-999.0000,13.6
2023-09-18 20:00:00,2023-09-18 13:00:00,-999.0000,49.09,-999.00,14.0000,5.6128,-999.0000,22.5,-999,16.8,57.0,,-999.0000,30.7990,-999.0000,14.3
2023-09-18 20:15:00,2023-09-18 13:15:00,-999.0000,49.09,-999.00,14.0000,5.3576,-999.0000,22.5,-999,16.7,56.0,,-999.0000,30.7960,-999.0000,13.8
2023-09-18 20:30:00,2023-09-18 13:30:00,-999.0000,49.09,-999.00,14.7000,5.2166,-999.0000,22.5,-999,18.0,53.0,,-999.0000,30.7960,-999.0000,13.9
2023-09-18 20:45:00,2023-09-18 13:45:00,-999.0000,49.09,-999.00,14.3000,6.3935,-999.0000,23.1,-999,18.5,59.0,,-999.0000,30.7990,-999.0000,13.7
2023-09-18 21:00:00,2023-09-18 14:00:00,-999.0000,49.09,-999.00,14.2000,6.2995,-999.0000,24.1,-999,19.2,59.0,,-999.0000,30.7990,-999.0000,13.8
2023-09-18 21:15:00,2023-09-18 14:15:00,-999.0000,49.09,-999.00,13.4000,6.4978,-999.0000,24.8,-999,18.8,63.0,,-999.0000,30.8020,-999.0000,13.8
2023-09-18 21:30:00,2023-09-18 14:30:00,-999.0000,49.09,-999.00,13.2000,6.5372,-999.0000,24.8,-999,18.8,64.0,,-999.0000,30.7990,-999.0000,13.8
2023-09-18 21:45:00,2023-09-18 14:45:00,-999.0000,49.09,-999.00,13.2000,6.9854,-999.0000,25.2,-999,19.0,66.0,,-999.0000,30.8090,-999.0000,13.7
2023-09-18 22:00:00,2023-09-18 15:00:00,-999.0000,49.09,-999.00,13.3000,6.6320,-999.0000,25.5,-999,18.1,64.0,,-999.0000,30.7990,-999.0000,13.7
2023-09-18 22:15:00,2023-09-18 15:15:00,-999.0000,49.09,-999.00,14.1000,6.4495,-999.0000,25.5,-999,18.4,60.0,,-999.0000,30.7920,-999.0000,14.1
2023-09-18 22:30:00,2023-09-18 15:30:00,-999.0000,49.09,-999.00,14.4000,5.9871,-999.0000,25.9,-999,19.5,57.0,,-999.0000,30.8020,-999.0000,13.9
2023-09-18 22:45:00,2023-09-18 15:45:00,-999.0000,49.09,-999.00,14.1000,5.7064,-999.0000,26.2,-999,18.3,57.0,,-999.0000,30.7960,-999.0000,13.7
2023-09-18 23:00:00,2023-09-18 16:00:00,-999.0000,49.09,-999.00,14.4000,5.7312,-999.0000,26.2,-999,16.5,56.0,,-999.0000,30.7990,-999.0000,14.1
2023-09-18 23:15:00,2023-09-18 16:15:00,-999.0000,49.09,-999.00,14.3000,5.3779,-999.0000,25.5,-999,15.5,55.0,,-999.0000,30.7960,-999.0000,13.8
2023-09-18 23:30:00,2023-09-18 16:30:00,-999.0000,49.09,-999.00,14.2000,5.2847,-999.0000,23.8,-999,15.4,55.0,,-999.0000,30.7960,-999.0000,13.7
2023-09-18 23:45:00,2023-09-18 16:45:00,-999.0000,49.09,-999.00,14.0000,4.2947,-999.0000,22.2,-999,15.4,52.0,,-999.0000,30.7920,-999.0000,14.0
2023-09-19 00:00:00,2023-09-18 17:00:00,-999.0000,49.09,-999.00,13.9000,4.4743,-999.0000,20.8,-999,14.8,53.0,,-999.0000,30.7960,-999.0000,14.4
2023-09-19 00:15:00,2023-09-18 17:15:00,-999.0000,49.09,-999.00,14.0000,4.8349,-999.0000,19.5,-999,14.7,54.0,,-999.0000,30.7960,-999.0000,14.4
2023-09-19 00:30:00,2023-09-18 17:30:00,-999.0000,49.09,-999.00,13.5000,4.6324,-999.0000,18.5,-999,14.1,55.0,,-999.0000,30.7990,-999.0000,13.7
2023-09-19 00:45:00,2023-09-18 17:45:00,-999.0000,49.09,-999.00,13.3000,4.7038,-999.0000,17.8,-999,13.7,56.0,,-999.0000,30.7890,-999.0000,14.2
2023-09-19 01:00:00,2023-09-18 18:00:00,-999.0000,49.09,-999.00,13.3000,4.1838,-999.0000,16.9,-999,13.5,54.0,,-999.0000,30.7920,-999.0000,13.1
2023-09-19 01:15:00,2023-09-18 18:15:00,-999.0000,49.09,-999.00,13.0000,4.1663,-999.0000,16.2,-999,13.3,55.0,,-999.0000,30.7890,-999.0000,13.1
2023-09-19 01:30:00,2023-09-18 18:30:00,-999.0000,49.09,-999.00,12.8000,4.2368,-999.0000,15.7,-999,12.9,56.0,,-999.0000,30.7960,-999.0000,13.0
2023-09-19 01:45:00,2023-09-18 18:45:00,-999.0000,49.09,-999.00,12.4000,4.1152,-999.0000,15.2,-999,12.6,57.0,,-999.0000,30.7920,-999.0000,12.9
2023-09-19 02:00:00,2023-09-18 19:00:00,-999.0000,49.09,-999.00,12.0000,4.4722,-999.0000,14.6,-999,12.2,60.0,,-999.0000,30.7960,-999.0000,12.9
2023-09-19 02:15:00,2023-09-18 19:15:00,-999.0000,49.09,-999.00,11.7000,4.6584,-999.0000,14.3,-999,11.8,62.0,,-999.0000,30.7990,-999.0000,12.8
2023-09-19 02:30:00,2023-09-18 19:30:00,-999.0000,49.09,-999.00,11.5000,4.9241,-999.0000,13.7,-999,11.5,64.0,,-999.0000,30.7990,-999.0000,12.8
2023-09-19 02:45:00,2023-09-18 19:45:00,-999.0000,49.09,-999.00,11.0000,4.8904,-999.0000,13.2,-999,10.9,66.0,,-999.0000,30.8060,-999.0000,12.8
2023-09-19 03:00:00,2023-09-18 20:00:00,-999.0000,49.09,-999.00,10.4000,4.5339,-999.0000,12.9,-999,10.3,67.0,,-999.0000,30.8120,-999.0000,12.8
2023-09-19 03:15:00,2023-09-18 20:15:00,-999.0000,49.09,-999.00,9.8000,4.5867,-999.0000,12.2,-999,9.7,70.0,,-999.0000,30.8120,-999.0000,12.8
2023-09-19 03:30:00,2023-09-18 20:30:00,-999.0000,49.09,-999.00,9.4000,4.6057,-999.0000,11.6,-999,9.2,72.0,,-999.0000,30.8160,-999.0000,12.8
2023-09-19 03:45:00,2023-09-18 20:45:00,-999.0000,49.09,-999.00,9.1000,4.5142,-999.0000,11.3,-999,9.0,73.0,,-999.0000,30.8120,-999.0000,12.8
2023-09-19 04:00:00,2023-09-18 21:00:00,-999.0000,49.09,-999.00,8.8000,4.4193,-999.0000,10.8,-999,8.7,74.0,,-999.0000,30.8160,-999.0000,12.7
2023-09-19 04:15:00,2023-09-18 21:15:00,-999.0000,49.09,-999.00,8.8000,4.6114,-999.0000,10.6,-999,8.7,75.0,,-999.0000,30.8120,-999.0000,12.7
2023-09-19 04:30:00,2023-09-18 21:30:00,-999.0000,49.09,-999.00,8.8000,4.6114,-999.0000,10.1,-999,8.5,75.0,,-999.0000,30.8190,-999.0000,12.7
2023-09-19 04:45:00,2023-09-18 21:45:00,-999.0000,49.09,-999.00,8.6000,4.6075,-999.0000,9.7,-999,8.3,76.0,,-999.0000,30.8190,-999.0000,12.7
2023-09-19 05:00:00,2023-09-18 22:00:00,-999.0000,49.09,-999.00,8.4000,4.4138,-999.0000,9.5,-999,8.2,76.0,,-999.0000,30.8160,-999.0000,12.7
2023-09-19 05:15:00,2023-09-18 22:15:00,-999.0000,49.09,-999.00,8.0000,4.3970,-999.0000,9.4,-999,7.8,78.0,,-999.0000,30.8120,-999.0000,12.7
2023-09-19 05:30:00,2023-09-18 22:30:00,-999.0000,49.09,-999.00,7.7000,4.2874,-999.0000,9.0,-999,7.7,79.0,,-999.0000,30.8090,-999.0000,12.7
2023-09-19 05:45:00,2023-09-18 22:45:00,-999.0000,49.09,-999.00,7.6000,4.1901,-999.0000,8.8,-999,7.5,79.0,,-999.0000,30.8090,-999.0000,12.7
2023-09-19 06:00:00,2023-09-18 23:00:00,-999.0000,49.09,-999.00,7.4000,4.1748,-999.0000,8.5,-999,7.2,80.0,,-999.0000,30.8020,-999.0000,12.7
2023-09-19 06:15:00,2023-09-18 23:15:00,-999.0000,49.09,-999.00,7.1000,4.0594,-999.0000,8.3,-999,6.9,81.0,,-999.0000,30.7960,-999.0000,12.7
2023-09-19 06:30:00,2023-09-18 23:30:00,-999.0000,49.09,-999.00,7.0000,4.1367,-999.0000,8.1,-999,6.8,82.0,,-999.0000,30.7960,-999.0000,12.7
2023-09-19 06:45:00,2023-09-18 23:45:00,-999.0000,49.09,-999.00,6.8000,3.9413,-999.0000,7.8,-999,6.6,82.0,,-999.0000,30.7960,-999.0000,12.7
2023-09-19 07:00:00,2023-09-19 00:00:00,-999.0000,49.09,-999.00,6.7000,4.0161,-999.0000,7.6,-999,6.6,83.0,,-999.0000,30.7990,-999.0000,12.7
2023-09-19 07:15:00,2023-09-19 00:15:00,-999.0000,49.09,-999.00,6.6000,3.7458,-999.0000,7.4,-999,6.5,82.0,,-999.0000,30.8020,-999.0000,12.7
2023-09-19 07:30:00,2023-09-19 00:30:00,-999.0000,49.09,-999.00,6.5000,3.8204,-999.0000,7.2,-999,6.4,83.0,,-999.0000,30.8090,-999.0000,12.7
2023-09-19 07:45:00,2023-09-19 00:45:00,-999.0000,49.09,-999.00,6.2000,3.6969,-999.0000,7.1,-999,6.1,84.0,,-999.0000,30.8120,-999.0000,12.7
2023-09-19 08:00:00,2023-09-19 01:00:00,-999.0000,49.09,-999.00,6.1000,3.7671,-999.0000,6.9,-999,5.9,85.0,,-999.0000,30.8090,-999.0000,12.7
2023-09-19 08:15:00,2023-09-19 01:15:00,-999.0000,49.09,-999.00,6.0000,3.6690,-999.0000,6.7,-999,6.0,85.0,,-999.0000,30.8060,-999.0000,12.7
2023-09-19 08:30:00,2023-09-19 01:30:00,-999.0000,49.09,-999.00,5.9000,3.5708,-999.0000,6.5,-999,6.0,85.0,,-999.0000,30.8090,-999.0000,12.7
2023-09-19 08:45:00,2023-09-19 01:45:00,-999.0000,49.09,-999.00,5.9000,3.5708,-999.0000,6.5,-999,5.9,85.0,,-999.0000,30.8060,-999.0000,12.7
2023-09-19 09:00:00,2023-09-19 02:00:00,-999.0000,49.09,-999.00,5.8000,3.4727,-999.0000,6.5,-999,5.7,85.0,,-999.0000,30.8090,-999.0000,12.6
2023-09-19 09:15:00,2023-09-19 02:15:00,-999.0000,49.09,-999.00,5.7000,3.5404,-999.0000,6.4,-999,5.6,86.0,,-999.0000,30.8090,-999.0000,12.6
2023-09-19 09:30:00,2023-09-19 02:30:00,-999.0000,49.09,-999.00,5.5000,3.5078,-999.0000,6.2,-999,5.4,87.0,,-999.0000,30.8090,-999.0000,12.6
2023-09-19 09:45:00,2023-09-19 02:45:00,-999.0000,49.09,-999.00,5.6000,3.4422,-999.0000,6.2,-999,5.4,86.0,,-999.0000,30.8090,-999.0000,12.6
2023-09-19 10:00:00,2023-09-19 03:00:00,-999.0000,49.09,-999.00,5.5000,3.5078,-999.0000,6.0,-999,5.5,87.0,,-999.0000,30.8090,-999.0000,12.6
2023-09-19 10:15:00,2023-09-19 03:15:00,-999.0000,49.09,-999.00,5.6000,3.6062,-999.0000,6.0,-999,5.6,87.0,,-999.0000,30.8120,-999.0000,12.6
2023-09-19 10:30:00,2023-09-19 03:30:00,-999.0000,49.09,-999.00,5.7000,3.5404,-999.0000,6.0,-999,5.6,86.0,,-999.0000,30.8120,-999.0000,12.6
2023-09-19 10:45:00,2023-09-19 03:45:00,-999.0000,49.09,-999.00,5.7000,3.5404,-999.0000,6.0,-999,5.7,86.0,,-999.0000,30.8120,-999.0000,12.6
2023-09-19 11:00:00,2023-09-19 04:00:00,-999.0000,49.09,-999.00,5.6000,3.6062,-999.0000,6.0,-999,5.6,87.0,,-999.0000,30.8060,-999.0000,12.6
2023-09-19 11:15:00,2023-09-19 04:15:00,-999.0000,49.09,-999.00,5.8000,3.8031,-999.0000,6.0,-999,5.7,87.0,,-999.0000,30.8090,-999.0000,12.6
2023-09-19 11:30:00,2023-09-19 04:30:00,-999.0000,49.09,-999.00,5.9000,3.7370,-999.0000,6.2,-999,5.8,86.0,,-999.0000,30.8020,-999.0000,12.6
2023-09-19 11:45:00,2023-09-19 04:45:00,-999.0000,49.09,-999.00,6.0000,3.8353,-999.0000,6.0,-999,5.9,86.0,,-999.0000,30.7990,-999.0000,12.6
2023-09-19 12:00:00,2023-09-19 05:00:00,-999.0000,49.09,-999.00,6.1000,3.9335,-999.0000,6.2,-999,6.0,86.0,,-999.0000,30.7990,-999.0000,12.6
2023-09-19 12:15:00,2023-09-19 05:15:00,-999.0000,49.09,-999.00,6.1000,3.9335,-999.0000,6.2,-999,6.0,86.0,,-999.0000,30.8060,-999.0000,12.6
2023-09-19 12:30:00,2023-09-19 05:30:00,-999.0000,49.09,-999.00,6.2000,4.0318,-999.0000,6.4,-999,6.0,86.0,,-999.0000,30.7990,-999.0000,12.6
2023-09-19 12:45:00,2023-09-19 05:45:00,-999.0000,49.09,-999.00,6.3000,4.1301,-999.0000,6.5,-999,6.2,86.0,,-999.0000,30.7750,-999.0000,12.6
2023-09-19 13:00:00,2023-09-19 06:00:00,-999.0000,49.09,-999.00,6.4000,4.2283,-999.0000,6.4,-999,6.4,86.0,,-999.0000,30.7720,-999.0000,12.6
2023-09-19 13:15:00,2023-09-19 06:15:00,-999.0000,49.09,-999.00,6.5000,4.1596,-999.0000,6.7,-999,6.4,85.0,,-999.0000,30.7820,-999.0000,12.5
2023-09-19 13:30:00,2023-09-19 06:30:00,-999.0000,49.09,-999.00,6.4000,4.2283,-999.0000,6.7,-999,6.2,86.0,,-999.0000,30.7920,-999.0000,12.5
2023-09-19 13:45:00,2023-09-19 06:45:00,-999.0000,49.09,-999.00,5.9000,3.9015,-999.0000,6.5,-999,5.8,87.0,,-999.0000,30.7920,-999.0000,12.5
2023-09-19 14:00:00,2023-09-19 07:00:00,-999.0000,49.09,-999.00,5.8000,3.9657,-999.0000,6.5,-999,5.8,88.0,,-999.0000,30.7990,-999.0000,12.5
2023-09-19 14:15:00,2023-09-19 07:15:00,-999.0000,49.09,-999.00,5.9000,4.0643,-999.0000,6.5,-999,5.9,88.0,,-999.0000,30.7990,-999.0000,12.5
2023-09-19 14:30:00,2023-09-19 07:30:00,-999.0000,49.09,-999.00,6.1000,4.0983,-999.0000,6.5,-999,6.1,87.0,,-999.0000,30.8060,-999.0000,12.5
2023-09-19 14:45:00,2023-09-19 07:45:00,-999.0000,49.09,-999.00,6.4000,4.5569,-999.0000,6.5,-999,6.3,88.0,,-999.0000,30.8090,-999.0000,12.5
2023-09-19 15:00:00,2023-09-19 08:00:00,-999.0000,49.09,-999.00,6.6000,4.4249,-999.0000,6.7,-999,6.5,86.0,,-999.0000,30.8090,-999.0000,12.6
2023-09-19 15:15:00,2023-09-19 08:15:00,-999.0000,49.09,-999.00,7.0000,4.6503,-999.0000,6.9,-999,6.9,85.0,,-999.0000,30.8020,-999.0000,12.6
2023-09-19 15:30:00,2023-09-19 08:30:00,-999.0000,49.09,-999.00,7.7000,4.9947,-999.0000,7.1,-999,7.5,83.0,,-999.0000,30.8020,-999.0000,12.7
2023-09-19 15:45:00,2023-09-19 08:45:00,-999.0000,49.09,-999.00,8.2000,4.9543,-999.0000,7.8,-999,8.2,80.0,,-999.0000,30.8090,-999.0000,12.7
2023-09-19 16:00:00,2023-09-19 09:00:00,-999.0000,49.09,-999.00,8.3000,5.0517,-999.0000,8.3,-999,8.4,80.0,,-999.0000,30.8120,-999.0000,12.8
2023-09-19 16:15:00,2023-09-19 09:15:00,-999.0000,49.09,-999.00,8.4000,4.9684,-999.0000,8.8,-999,8.5,79.0,,-999.0000,30.8060,-999.0000,12.8
2023-09-19 16:30:00,2023-09-19 09:30:00,-999.0000,49.09,-999.00,8.6000,4.9799,-999.0000,9.4,-999,8.6,78.0,,-999.0000,30.8120,-999.0000,12.9
2023-09-19 16:45:00,2023-09-19 09:45:00,-999.0000,49.09,-999.00,8.7000,5.0771,-999.0000,9.5,-999,8.7,78.0,,-999.0000,30.8190,-999.0000,12.9
2023-09-19 17:00:00,2023-09-19 10:00:00,-999.0000,49.09,-999.00,9.0000,5.1827,-999.0000,10.1,-999,9.0,77.0,,-999.0000,30.8220,-999.0000,13.0
2023-09-19 17:15:00,2023-09-19 10:15:00,-999.0000,49.09,-999.00,9.3000,5.0949,-999.0000,10.2,-999,9.4,75.0,,-999.0000,30.8220,-999.0000,13.1
2023-09-19 17:30:00,2023-09-19 10:30:00,-999.0000,49.09,-999.00,9.6000,5.3849,-999.0000,10.8,-999,9.8,75.0,,-999.0000,30.8190,-999.0000,13.2
2023-09-19 17:45:00,2023-09-19 10:45:00,-999.0000,49.09,-999.00,10.1000,5.6744,-999.0000,11.1,-999,10.5,74.0,,-999.0000,30.8220,-999.0000,13.5
2023-09-19 18:00:00,2023-09-19 11:00:00,-999.0000,49.09,-999.00,10.8000,5.7506,-999.0000,11.8,-999,11.1,71.0,,-999.0000,30.8220,-999.0000,13.6
2023-09-19 18:15:00,2023-09-19 11:15:00,-999.0000,49.09,-999.00,11.9000,6.1797,-999.0000,12.9,-999,11.7,68.0,,-999.0000,30.8220,-999.0000,14.6
2023-09-19 18:30:00,2023-09-19 11:30:00,-999.0000,49.09,-999.00,12.3000,5.9074,-999.0000,14.5,-999,13.0,65.0,,-999.0000,30.8220,-999.0000,14.2
2023-09-19 18:45:00,2023-09-19 11:45:00,-999.0000,49.09,-999.00,12.0000,5.6222,-999.0000,15.9,-999,12.7,65.0,,-999.0000,30.8260,-999.0000,13.7
2023-09-19 19:00:00,2023-09-19 12:00:00,-999.0000,49.09,-999.00,11.9000,5.7476,-999.0000,15.9,-999,12.4,66.0,,-999.0000,30.8190,-999.0000,13.9
2023-09-19 19:15:00,2023-09-19 12:15:00,-999.0000,49.09,-999.00,12.1000,5.2666,-999.0000,15.7,-999,12.8,63.0,,-999.0000,30.8160,-999.0000,14.2
2023-09-19 19:30:00,2023-09-19 12:30:00,-999.0000,49.09,-999.00,12.1000,5.0365,-999.0000,15.9,-999,12.8,62.0,,-999.0000,30.8120,-999.0000,13.8
2023-09-19 19:45:00,2023-09-19 12:45:00,-999.0000,49.09,-999.00,12.7000,4.8900,-999.0000,15.9,-999,13.6,59.0,,-999.0000,30.8160,-999.0000,13.9
2023-09-19 20:00:00,2023-09-19 13:00:00,-999.0000,49.09,-999.00,13.2000,4.3527,-999.0000,16.7,-999,15.0,55.0,,-999.0000,30.8120,-999.0000,14.3
2023-09-19 20:15:00,2023-09-19 13:15:00,-999.0000,49.09,-999.00,13.2000,3.8246,-999.0000,17.6,-999,14.5,53.0,,-999.0000,30.8160,-999.0000,13.9
2023-09-19 20:30:00,2023-09-19 13:30:00,-999.0000,49.09,-999.00,13.4000,3.7391,-999.0000,17.8,-999,14.5,52.0,,-999.0000,30.8120,-999.0000,14.1
2023-09-19 20:45:00,2023-09-19 13:45:00,-999.0000,49.09,-999.00,13.3000,4.1838,-999.0000,18.0,-999,14.4,54.0,,-999.0000,30.8090,-999.0000,13.9
2023-09-19 21:00:00,2023-09-19 14:00:00,-999.0000,49.09,-999.00,13.1000,3.7318,-999.0000,17.8,-999,14.0,53.0,,-999.0000,30.8120,-999.0000,14.0
2023-09-19 21:15:00,2023-09-19 14:15:00,-999.0000,49.09,-999.00,13.1000,3.9978,-999.0000,17.4,-999,13.9,54.0,,-999.0000,30.8120,-999.0000,14.1
2023-09-19 21:30:00,2023-09-19 14:30:00,-999.0000,49.09,-999.00,13.1000,4.5170,-999.0000,17.1,-999,14.0,56.0,,-999.0000,30.8120,-999.0000,14.6
2023-09-19 21:45:00,2023-09-19 14:45:00,-999.0000,49.09,-999.00,13.5000,4.6324,-999.0000,16.9,-999,14.2,55.0,,-999.0000,30.8090,-999.0000,13.8
2023-09-19 22:00:00,2023-09-19 15:00:00,-999.0000,49.09,-999.00,13.5000,4.6324,-999.0000,16.9,-999,14.4,55.0,,-999.0000,30.8090,-999.0000,13.8
2023-09-19 22:15:00,2023-09-19 15:15:00,-999.0000,49.09,-999.00,14.0000,5.0984,-999.0000,17.4,-999,16.4,55.0,,-999.0000,30.8020,-999.0000,14.5
2023-09-19 22:30:00,2023-09-19 15:30:00,-999.0000,49.09,-999.00,14.4000,4.9382,-999.0000,18.7,-999,17.9,53.0,,-999.0000,30.7960,-999.0000,13.7
2023-09-19 22:45:00,2023-09-19 15:45:00,-999.0000,49.09,-999.00,14.7000,4.6643,-999.0000,21.0,-999,19.1,51.0,,-999.0000,30.7990,-999.0000,13.8
2023-09-19 23:00:00,2023-09-19 16:00:00,-999.0000,49.09,-999.00,14.9000,4.2765,-999.0000,23.2,-999,17.1,49.0,,-999.0000,30.7960,-999.0000,13.8
2023-09-19 23:15:00,2023-09-19 16:15:00,-999.0000,49.09,-999.00,13.8000,4.3815,-999.0000,23.8,-999,15.3,53.0,,-999.0000,30.7960,-999.0000,13.8
2023-09-19 23:30:00,2023-09-19 16:30:00,-999.0000,49.09,-999.00,13.5000,4.6324,-999.0000,22.5,-999,14.5,55.0,,-999.0000,30.7860,-999.0000,14.5
2023-09-19 23:45:00,2023-09-19 16:45:00,-999.0000,49.09,-999.00,13.3000,4.7038,-999.0000,20.8,-999,14.0,56.0,,-999.0000,30.7860,-999.0000,13.9
2023-09-20 00:00:00,2023-09-19 17:00:00,-999.0000,49.09,-999.00,13.0000,4.9263,-999.0000,19.4,-999,13.5,58.0,,-999.0000,30.7820,-999.0000,14.0
2023-09-20 00:15:00,2023-09-19 17:15:00,-999.0000,49.09,-999.00,13.1000,5.2659,-999.0000,18.1,-999,13.5,59.0,,-999.0000,30.7790,-999.0000,13.7
2023-09-20 00:30:00,2023-09-19 17:30:00,-999.0000,49.09,-999.00,12.8000,5.2256,-999.0000,17.3,-999,13.1,60.0,,-999.0000,30.7790,-999.0000,13.8
2023-09-20 00:45:00,2023-09-19 17:45:00,-999.0000,49.09,-999.00,12.6000,5.2749,-999.0000,16.6,-999,12.9,61.0,,-999.0000,30.7790,-999.0000,14.4
2023-09-20 01:00:00,2023-09-19 18:00:00,-999.0000,49.09,-999.00,12.4000,5.3201,-999.0000,15.7,-999,12.7,62.0,,-999.0000,30.7720,-999.0000,13.6
2023-09-20 01:15:00,2023-09-19 18:15:00,-999.0000,49.09,-999.00,12.2000,5.3613,-999.0000,15.3,-999,12.4,63.0,,-999.0000,30.7750,-999.0000,13.0
2023-09-20 01:30:00,2023-09-19 18:30:00,-999.0000,49.09,-999.00,12.1000,5.4935,-999.0000,14.6,-999,12.2,64.0,,-999.0000,30.7720,-999.0000,12.9
2023-09-20 01:45:00,2023-09-19 18:45:00,-999.0000,49.09,-999.00,11.9000,5.5272,-999.0000,14.3,-999,12.0,65.0,,-999.0000,30.7650,-999.0000,12.9
2023-09-20 02:00:00,2023-09-19 19:00:00,-999.0000,49.09,-999.00,11.8000,5.6523,-999.0000,13.7,-999,11.9,66.0,,-999.0000,30.7650,-999.0000,12.8
2023-09-20 02:15:00,2023-09-19 19:15:00,-999.0000,49.09,-999.00,11.5000,5.7974,-999.0000,13.6,-999,11.6,68.0,,-999.0000,30.7590,-999.0000,12.8
2023-09-20 02:30:00,2023-09-19 19:30:00,-999.0000,49.09,-999.00,11.2000,5.9295,-999.0000,13.0,-999,11.2,70.0,,-999.0000,30.7550,-999.0000,12.8
2023-09-20 02:45:00,2023-09-19 19:45:00,-999.0000,49.09,-999.00,10.6000,5.7605,-999.0000,12.7,-999,10.8,72.0,,-999.0000,30.7520,-999.0000,12.8
2023-09-20 03:00:00,2023-09-19 20:00:00,-999.0000,49.09,-999.00,10.6000,5.9600,-999.0000,12.3,-999,10.7,73.0,,-999.0000,30.7520,-999.0000,12.8
2023-09-20 03:15:00,2023-09-19 20:15:00,-999.0000,49.09,-999.00,10.8000,6.1527,-999.0000,12.0,-999,10.7,73.0,,-999.0000,30.7620,-999.0000,12.8
2023-09-20 03:30:00,2023-09-19 20:30:00,-999.0000,49.09,-999.00,10.9000,6.2491,-999.0000,11.8,-999,10.8,73.0,,-999.0000,30.7490,-999.0000,12.8
2023-09-20 03:45:00,2023-09-19 20:45:00,-999.0000,49.09,-999.00,10.8000,6.1527,-999.0000,11.8,-999,10.8,73.0,,-999.0000,30.7490,-999.0000,12.8
2023-09-20 04:00:00,2023-09-19 21:00:00,-999.0000,49.09,-999.00,10.8000,6.3501,-999.0000,11.6,-999,10.8,74.0,,-999.0000,30.7450,-999.0000,12.7
2023-09-20 04:15:00,2023-09-19 21:15:00,-999.0000,49.09,-999.00,10.8000,6.7379,-999.0000,11.5,-999,10.7,76.0,,-999.0000,30.7320,-999.0000,12.7
2023-09-20 04:30:00,2023-09-19 21:30:00,-999.0000,49.09,-999.00,10.6000,7.1085,-999.0000,11.5,-999,10.6,79.0,,-999.0000,30.7390,-999.0000,12.7
2023-09-20 04:45:00,2023-09-19 21:45:00,-999.0000,49.09,-999.00,10.4000,7.2792,-999.0000,11.5,-999,10.4,81.0,,-999.0000,30.7350,-999.0000,12.7
2023-09-20 05:00:00,2023-09-19 22:00:00,-999.0000,49.09,-999.00,10.3000,7.5386,-999.0000,11.3,-999,10.2,83.0,,-999.0000,30.7250,-999.0000,12.7
2023-09-20 05:15:00,2023-09-19 22:15:00,-999.0000,49.09,-999.00,10.0000,8.1035,-999.0000,11.3,-999,10.1,88.0,,-999.0000,30.7290,-999.0000,12.7
2023-09-20 05:30:00,2023-09-19 22:30:00,-999.0000,49.09,-999.00,9.6000,8.2025,-999.0000,11.1,-999,9.7,91.0,,-999.0000,30.7250,-999.0000,12.7
2023-09-20 05:45:00,2023-09-19 22:45:00,-999.0000,49.09,-999.00,9.4000,8.3250,-999.0000,10.9,-999,9.5,93.0,,-999.0000,30.7220,-999.0000,12.7
2023-09-20 06:00:00,2023-09-19 23:00:00,-999.0000,49.09,-999.00,9.3000,8.3836,-999.0000,10.6,-999,9.5,94.0,,-999.0000,30.7190,-999.0000,12.7
2023-09-20 06:15:00,2023-09-19 23:15:00,-999.0000,49.09,-999.00,9.1000,8.3410,-999.0000,10.6,-999,9.3,95.0,,-999.0000,30.7190,-999.0000,12.7
2023-09-20 06:30:00,2023-09-19 23:30:00,-999.0000,49.09,-999.00,9.1000,8.3410,-999.0000,10.4,-999,9.3,95.0,,-999.0000,30.7150,-999.0000,12.7
2023-09-20 06:45:00,2023-09-19 23:45:00,-999.0000,49.09,-999.00,9.2000,8.5951,-999.0000,10.2,-999,9.4,96.0,,-999.0000,30.7150,-999.0000,12.7
2023-09-20 07:00:00,2023-09-20 00:00:00,-999.0000,49.09,-999.00,9.1000,8.3410,-999.0000,10.1,-999,9.3,95.0,,-999.0000,30.7090,-999.0000,12.7
2023-09-20 07:15:00,2023-09-20 00:15:00,-999.0000,49.09,-999.00,8.9000,8.1422,-999.0000,9.9,-999,9.0,95.0,,-999.0000,30.7090,-999.0000,12.7
2023-09-20 07:30:00,2023-09-20 00:30:00,-999.0000,49.09,-999.00,8.7000,7.9434,-999.0000,9.9,-999,8.6,95.0,,-999.0000,30.7050,-999.0000,12.7
2023-09-20 07:45:00,2023-09-20 00:45:00,-999.0000,49.09,-999.00,8.5000,7.2744,-999.0000,9.7,-999,8.2,92.0,,-999.0000,30.7090,-999.0000,12.7
2023-09-20 08:00:00,2023-09-20 01:00:00,-999.0000,49.09,-999.00,8.1000,7.1922,-999.0000,9.4,-999,7.9,94.0,,-999.0000,30.7120,-999.0000,12.7
2023-09-20 08:15:00,2023-09-20 01:15:00,-999.0000,49.09,-999.00,8.0000,7.0930,-999.0000,9.2,-999,7.7,94.0,,-999.0000,30.7120,-999.0000,12.7
2023-09-20 08:30:00,2023-09-20 01:30:00,-999.0000,49.09,-999.00,8.0000,7.2476,-999.0000,9.0,-999,7.7,95.0,,-999.0000,30.7050,-999.0000,12.7
2023-09-20 08:45:00,2023-09-20 01:45:00,-999.0000,49.09,-999.00,7.9000,6.9937,-999.0000,8.8,-999,7.7,94.0,,-999.0000,30.7150,-999.0000,12.6
2023-09-20 09:00:00,2023-09-20 02:00:00,-999.0000,49.09,-999.00,7.8000,6.7385,-999.0000,8.6,-999,7.5,93.0,,-999.0000,30.7120,-999.0000,12.7
2023-09-20 09:15:00,2023-09-20 02:15:00,-999.0000,49.09,-999.00,7.7000,6.7951,-999.0000,8.5,-999,7.4,94.0,,-999.0000,30.7050,-999.0000,12.6
2023-09-20 09:30:00,2023-09-20 02:30:00,-999.0000,49.09,-999.00,7.5000,6.5966,-999.0000,8.5,-999,7.3,94.0,,-999.0000,30.7020,-999.0000,12.6
2023-09-20 09:45:00,2023-09-20 02:45:00,-999.0000,49.09,-999.00,7.4000,6.6512,-999.0000,8.3,-999,7.2,95.0,,-999.0000,30.7020,-999.0000,12.6
2023-09-20 10:00:00,2023-09-20 03:00:00,-999.0000,49.10,-999.00,7.3000,6.8552,-999.0000,8.1,-999,7.1,97.0,,-999.0000,30.6990,-999.0000,12.6
2023-09-20 10:15:00,2023-09-20 03:15:00,-999.0000,49.10,-999.00,7.1000,6.6559,-999.0000,8.1,-999,7.0,97.0,,-999.0000,30.6950,-999.0000,12.6
2023-09-20 10:30:00,2023-09-20 03:30:00,-999.0000,49.10,-999.00,7.1000,6.6559,-999.0000,7.9,-999,6.9,97.0,,-999.0000,30.6890,-999.0000,12.6
2023-09-20 10:45:00,2023-09-20 03:45:00,-999.0000,49.10,-999.00,7.0000,6.4056,-999.0000,7.8,-999,6.8,96.0,,-999.0000,30.6890,-999.0000,12.6
2023-09-20 11:00:00,2023-09-20 04:00:00,-999.0000,49.10,-999.00,7.0000,6.4056,-999.0000,7.6,-999,6.7,96.0,,-999.0000,30.6850,-999.0000,12.6
2023-09-20 11:15:00,2023-09-20 04:15:00,-999.0000,49.10,-999.00,7.0000,6.4056,-999.0000,7.8,-999,6.7,96.0,,-999.0000,30.6850,-999.0000,12.6
2023-09-20 11:30:00,2023-09-20 04:30:00,-999.0000,49.10,-999.00,7.0000,6.2536,-999.0000,7.6,-999,6.7,95.0,,-999.0000,30.6850,-999.0000,12.6
2023-09-20 11:45:00,2023-09-20 04:45:00,-999.0000,49.10,-999.00,6.9000,6.3061,-999.0000,7.6,-999,6.6,96.0,,-999.0000,30.6820,-999.0000,12.6
2023-09-20 12:00:00,2023-09-20 05:00:00,-999.0000,49.10,-999.00,6.9000,6.3061,-999.0000,7.4,-999,6.6,96.0,,-999.0000,30.6890,-999.0000,12.6
2023-09-20 12:15:00,2023-09-20 05:15:00,-999.0000,49.10,-999.00,6.8000,6.2066,-999.0000,7.4,-999,6.6,96.0,,-999.0000,30.6920,-999.0000,12.6
2023-09-20 12:30:00,2023-09-20 05:30:00,-999.0000,49.10,-999.00,6.7000,6.1070,-999.0000,7.4,-999,6.5,96.0,,-999.0000,30.6950,-999.0000,12.6
2023-09-20 12:45:00,2023-09-20 05:45:00,-999.0000,49.10,-999.00,6.6000,5.8560,-999.0000,7.4,-999,6.4,95.0,,-999.0000,30.6950,-999.0000,12.6
2023-09-20 13:00:00,2023-09-20 06:00:00,-999.0000,49.10,-999.00,6.5000,5.9080,-999.0000,7.2,-999,6.3,96.0,,-999.0000,30.6990,-999.0000,12.5
2023-09-20 13:15:00,2023-09-20 06:15:00,-999.0000,49.10,-999.00,6.5000,5.9080,-999.0000,7.4,-999,6.3,96.0,,-999.0000,30.6990,-999.0000,12.5
2023-09-20 13:30:00,2023-09-20 06:30:00,-999.0000,49.10,-999.00,6.4000,5.9584,-999.0000,7.2,-999,6.3,97.0,,-999.0000,30.6890,-999.0000,12.5
2023-09-20 13:45:00,2023-09-20 06:45:00,-999.0000,49.10,-999.00,6.4000,5.9584,-999.0000,7.1,-999,6.2,97.0,,-999.0000,30.6950,-999.0000,12.5
2023-09-20 14:00:00,2023-09-20 07:00:00,-999.0000,49.10,-999.00,6.3000,5.8587,-999.0000,7.1,-999,6.2,97.0,,-999.0000,30.6950,-999.0000,12.5
2023-09-20 14:15:00,2023-09-20 07:15:00,-999.0000,49.10,-999.00,6.2000,5.9074,-999.0000,7.1,-999,6.1,98.0,,-999.0000,30.6990,-999.0000,12.5
2023-09-20 14:30:00,2023-09-20 07:30:00,-999.0000,49.10,-999.00,6.2000,5.9074,-999.0000,7.1,-999,6.1,98.0,,-999.0000,30.7020,-999.0000,12.5
2023-09-20 14:45:00,2023-09-20 07:45:00,-999.0000,49.10,-999.00,6.2000,6.0543,-999.0000,7.1,-999,6.1,99.0,,-999.0000,30.7050,-999.0000,12.5
2023-09-20 15:00:00,2023-09-20 08:00:00,-999.0000,49.10,-999.00,6.1000,5.9545,-999.0000,6.9,-999,6.1,99.0,,-999.0000,30.7050,-999.0000,12.5
2023-09-20 15:15:00,2023-09-20 08:15:00,-999.0000,49.10,-999.00,6.1000,5.9545,-999.0000,7.1,-999,6.1,99.0,,-999.0000,30.7090,-999.0000,12.5
2023-09-20 15:30:00,2023-09-20 08:30:00,-999.0000,49.10,-999.00,6.1000,5.9545,-999.0000,7.1,-999,6.1,99.0,,-999.0000,30.7050,-999.0000,12.5
2023-09-20 15:45:00,2023-09-20 08:45:00,-999.0000,49.10,-999.00,6.2000,6.0543,-999.0000,6.9,-999,6.2,99.0,,-999.0000,30.7050,-999.0000,12.5
2023-09-20 16:00:00,2023-09-20 09:00:00,-999.0000,49.10,-999.00,6.4000,6.1069,-999.0000,6.9,-999,6.4,98.0,,-999.0000,30.7050,-999.0000,12.6
2023-09-20 16:15:00,2023-09-20 09:15:00,-999.0000,49.10,-999.00,6.5000,6.0580,-999.0000,7.1,-999,6.4,97.0,,-999.0000,30.7120,-999.0000,12.6
2023-09-20 16:30:00,2023-09-20 09:30:00,-999.0000,49.10,-999.00,6.7000,6.2573,-999.0000,7.2,-999,6.6,97.0,,-999.0000,30.7220,-999.0000,12.6
2023-09-20 16:45:00,2023-09-20 09:45:00,-999.0000,49.10,-999.00,6.9000,6.3061,-999.0000,7.4,-999,6.8,96.0,,-999.0000,30.7250,-999.0000,12.6
2023-09-20 17:00:00,2023-09-20 10:00:00,-999.0000,49.10,-999.00,7.1000,6.6559,-999.0000,7.6,-999,7.0,97.0,,-999.0000,30.7290,-999.0000,12.6
2023-09-20 17:15:00,2023-09-20 10:15:00,-999.0000,49.10,-999.00,7.4000,6.9548,-999.0000,7.8,-999,7.4,97.0,,-999.0000,30.7250,-999.0000,12.7
2023-09-20 17:30:00,2023-09-20 10:30:00,-999.0000,49.10,-999.00,7.6000,7.0028,-999.0000,7.9,-999,7.6,96.0,,-999.0000,30.7320,-999.0000,12.7
2023-09-20 17:45:00,2023-09-20 10:45:00,-999.0000,49.10,-999.00,7.7000,6.4821,-999.0000,8.3,-999,7.6,92.0,,-999.0000,30.7320,-999.0000,12.8
2023-09-20 18:00:00,2023-09-20 11:00:00,-999.0000,49.10,-999.00,7.5000,6.9032,-999.0000,8.5,-999,7.5,96.0,,-999.0000,30.7390,-999.0000,12.8
2023-09-20 18:15:00,2023-09-20 11:15:00,-999.0000,49.10,-999.00,7.7000,7.2537,-999.0000,8.6,-999,7.7,97.0,,-999.0000,30.7390,-999.0000,12.8
2023-09-20 18:30:00,2023-09-20 11:30:00,-999.0000,49.10,-999.00,8.5000,7.7446,-999.0000,9.0,-999,8.5,95.0,,-999.0000,30.7420,-999.0000,13.3
2023-09-20 18:45:00,2023-09-20 11:45:00,-999.0000,49.10,-999.00,8.5000,7.5894,-999.0000,9.7,-999,8.8,94.0,,-999.0000,30.7520,-999.0000,13.5
2023-09-20 19:00:00,2023-09-20 12:00:00,-999.0000,49.10,-999.00,8.7000,7.6309,-999.0000,10.8,-999,9.2,93.0,,-999.0000,30.7490,-999.0000,13.6
2023-09-20 19:15:00,2023-09-20 12:15:00,-999.0000,49.10,-999.00,8.8000,7.8872,-999.0000,11.5,-999,9.3,94.0,,-999.0000,30.7520,-999.0000,13.5
2023-09-20 19:30:00,2023-09-20 12:30:00,-999.0000,49.10,-999.00,8.9000,7.9865,-999.0000,11.8,-999,9.3,94.0,,-999.0000,30.7490,-999.0000,13.5
2023-09-20 19:45:00,2023-09-20 12:45:00,-999.0000,49.10,-999.00,8.7000,7.9434,-999.0000,11.8,-999,9.2,95.0,,-999.0000,30.7550,-999.0000,13.5
2023-09-20 20:00:00,2023-09-20 13:00:00,-999.0000,49.10,-999.00,8.9000,7.9865,-999.0000,11.8,-999,9.3,94.0,,-999.0000,30.7550,-999.0000,13.5
2023-09-20 20:15:00,2023-09-20 13:15:00,-999.0000,49.10,-999.00,9.4000,8.1656,-999.0000,11.8,-999,9.7,92.0,,-999.0000,30.7520,-999.0000,13.5
2023-09-20 20:30:00,2023-09-20 13:30:00,-999.0000,49.10,-999.00,9.7000,8.3014,-999.0000,12.2,-999,10.0,91.0,,-999.0000,30.7490,-999.0000,14.3
2023-09-20 20:45:00,2023-09-20 13:45:00,-999.0000,49.10,-999.00,10.0000,8.1035,-999.0000,12.5,-999,10.7,88.0,,-999.0000,30.7590,-999.0000,13.7
2023-09-20 21:00:00,2023-09-20 14:00:00,-999.0000,49.10,-999.00,9.8000,7.7386,-999.0000,12.9,-999,10.8,87.0,,-999.0000,30.7620,-999.0000,13.7
2023-09-20 21:15:00,2023-09-20 14:15:00,-999.0000,49.10,-999.00,9.4000,8.0047,-999.0000,13.0,-999,10.0,91.0,,-999.0000,30.7650,-999.0000,13.6
2023-09-20 21:30:00,2023-09-20 14:30:00,-999.0000,49.10,-999.00,8.9000,7.8292,-999.0000,12.9,-999,9.3,93.0,,-999.0000,30.7720,-999.0000,13.5
2023-09-20 21:45:00,2023-09-20 14:45:00,-999.0000,49.10,-999.00,8.8000,8.1970,-999.0000,12.2,-999,8.9,96.0,,-999.0000,30.7720,-999.0000,13.4
2023-09-20 22:00:00,2023-09-20 15:00:00,-999.0000,49.10,-999.00,8.6000,7.9980,-999.0000,11.6,-999,8.8,96.0,,-999.0000,30.7750,-999.0000,13.4
2023-09-20 22:15:00,2023-09-20 15:15:00,-999.0000,49.10,-999.00,8.6000,7.9980,-999.0000,11.3,-999,8.7,96.0,,-999.0000,30.7790,-999.0000,13.3
2023-09-20 22:30:00,2023-09-20 15:30:00,-999.0000,49.10,-999.00,8.6000,8.1505,-999.0000,11.1,-999,8.6,97.0,,-999.0000,30.7820,-999.0000,13.3
2023-09-20 22:45:00,2023-09-20 15:45:00,-999.0000,49.10,-999.00,8.3000,7.6994,-999.0000,10.8,-999,8.4,96.0,,-999.0000,30.7820,-999.0000,13.2
2023-09-20 23:00:00,2023-09-20 16:00:00,-999.0000,49.10,-999.00,8.2000,7.5999,-999.0000,10.4,-999,8.2,96.0,,-999.0000,30.7860,-999.0000,13.1
2023-09-20 23:15:00,2023-09-20 16:15:00,-999.0000,49.10,-999.00,8.3000,7.6994,-999.0000,10.1,-999,8.3,96.0,,-999.0000,30.7820,-999.0000,13.1
2023-09-20 23:30:00,2023-09-20 16:30:00,-999.0000,49.10,-999.00,8.7000,8.0975,-999.0000,10.1,-999,8.7,96.0,,-999.0000,30.7860,-999.0000,13.4
2023-09-20 23:45:00,2023-09-20 16:45:00,-999.0000,49.10,-999.00,9.0000,8.3961,-999.0000,10.1,-999,9.0,96.0,,-999.0000,30.7860,-999.0000,13.2
2023-09-21 00:00:00,2023-09-20 17:00:00,-999.0000,49.10,-999.00,8.9000,7.9865,-999.0000,10.2,-999,8.9,94.0,,-999.0000,30.7860,-999.0000,13.2
2023-09-21 00:15:00,2023-09-20 17:15:00,-999.0000,49.10,-999.00,8.9000,7.9865,-999.0000,10.2,-999,8.9,94.0,,-999.0000,30.7860,-999.0000,13.1
2023-09-21 00:30:00,2023-09-20 17:30:00,-999.0000,49.10,-999.00,8.8000,8.0428,-999.0000,10.4,-999,8.8,95.0,,-999.0000,30.7890,-999.0000,13.1
2023-09-21 00:45:00,2023-09-20 17:45:00,-999.0000,49.10,-999.00,8.7000,7.9434,-999.0000,10.2,-999,8.8,95.0,,-999.0000,30.7960,-999.0000,13.0
2023-09-21 01:00:00,2023-09-20 18:00:00,-999.0000,49.10,-999.00,8.6000,7.8440,-999.0000,10.2,-999,8.7,95.0,,-999.0000,30.7920,-999.0000,13.0
2023-09-21 01:15:00,2023-09-20 18:15:00,-999.0000,49.10,-999.00,8.6000,7.6886,-999.0000,10.2,-999,8.6,94.0,,-999.0000,30.7990,-999.0000,13.0
2023-09-21 01:30:00,2023-09-20 18:30:00,-999.0000,49.10,-999.00,8.6000,7.8440,-999.0000,10.1,-999,8.5,95.0,,-999.0000,30.8060,-999.0000,12.9
2023-09-21 01:45:00,2023-09-20 18:45:00,-999.0000,49.10,-999.00,8.6000,7.9980,-999.0000,9.9,-999,8.5,96.0,,-999.0000,30.8090,-999.0000,12.9
2023-09-21 02:00:00,2023-09-20 19:00:00,-999.0000,49.10,-999.00,8.5000,7.8985,-999.0000,9.9,-999,8.4,96.0,,-999.0000,30.8090,-999.0000,12.8
2023-09-21 02:15:00,2023-09-20 19:15:00,-999.0000,49.10,-999.00,8.5000,7.8985,-999.0000,9.7,-999,8.4,96.0,,-999.0000,30.8120,-999.0000,12.8
2023-09-21 02:30:00,2023-09-20 19:30:00,-999.0000,49.10,-999.00,8.5000,7.8985,-999.0000,9.5,-999,8.4,96.0,,-999.0000,30.8190,-999.0000,12.8
2023-09-21 02:45:00,2023-09-20 19:45:00,-999.0000,49.10,-999.00,8.4000,7.6452,-999.0000,9.5,-999,8.3,95.0,,-999.0000,30.8120,-999.0000,12.8
2023-09-21 03:00:00,2023-09-20 20:00:00,-999.0000,49.10,-999.00,8.4000,7.7989,-999.0000,9.4,-999,8.3,96.0,,-999.0000,30.8160,-999.0000,12.8
2023-09-21 03:15:00,2023-09-20 20:15:00,-999.0000,49.10,-999.00,8.4000,7.7989,-999.0000,9.2,-999,8.3,96.0,,-999.0000,30.8120,-999.0000,12.7
2023-09-21 03:30:00,2023-09-20 20:30:00,-999.0000,49.10,-999.00,8.4000,7.7989,-999.0000,9.2,-999,8.2,96.0,,-999.0000,30.8190,-999.0000,12.7
2023-09-21 03:45:00,2023-09-20 20:45:00,-999.0000,49.10,-999.00,8.4000,7.7989,-999.0000,9.0,-999,8.3,96.0,,-999.0000,30.8190,-999.0000,12.7
2023-09-21 04:00:00,2023-09-20 21:00:00,-999.0000,49.10,-999.00,8.4000,7.7989,-999.0000,9.0,-999,8.3,96.0,,-999.0000,30.8220,-999.0000,12.7
2023-09-21 04:15:00,2023-09-20 21:15:00,-999.0000,49.10,-999.00,8.4000,7.7989,-999.0000,9.0,-999,8.2,96.0,,-999.0000,30.8190,-999.0000,12.7
2023-09-21 04:30:00,2023-09-20 21:30:00,-999.0000,49.10,-999.00,8.3000,7.8516,-999.0000,9.0,-999,8.2,97.0,,-999.0000,30.8220,-999.0000,12.7
2023-09-21 04:45:00,2023-09-20 21:45:00,-999.0000,49.10,-999.00,8.3000,7.8516,-999.0000,9.0,-999,8.2,97.0,,-999.0000,30.8220,-999.0000,12.7
2023-09-21 05:00:00,2023-09-20 22:00:00,-999.0000,49.10,-999.00,8.3000,7.8516,-999.0000,8.8,-999,8.2,97.0,,-999.0000,30.8220,-999.0000,12.7
2023-09-21 05:15:00,2023-09-20 22:15:00,-999.0000,49.10,-999.00,8.4000,7.9512,-999.0000,9.0,-999,8.2,97.0,,-999.0000,30.8220,-999.0000,12.7
2023-09-21 05:30:00,2023-09-20 22:30:00,-999.0000,49.10,-999.00,8.3000,7.6994,-999.0000,8.8,-999,8.1,96.0,,-999.0000,30.8260,-999.0000,12.7
2023-09-21 05:45:00,2023-09-20 22:45:00,-999.0000,49.10,-999.00,8.3000,7.6994,-999.0000,8.8,-999,8.1,96.0,,-999.0000,30.8290,-999.0000,12.7
2023-09-21 06:00:00,2023-09-20 23:00:00,-999.0000,49.10,-999.00,8.3000,7.6994,-999.0000,8.8,-999,8.1,96.0,,-999.0000,30.8260,-999.0000,12.7
2023-09-21 06:15:00,2023-09-20 23:15:00,-999.0000,49.10,-999.00,8.3000,7.6994,-999.0000,8.8,-999,8.1,96.0,,-999.0000,30.8290,-999.0000,12.7
2023-09-21 06:30:00,2023-09-20 23:30:00,-999.0000,49.10,-999.00,8.3000,7.6994,-999.0000,8.8,-999,8.0,96.0,,-999.0000,30.8260,-999.0000,12.7
2023-09-21 06:45:00,2023-09-20 23:45:00,-999.0000,49.10,-999.00,8.2000,7.5999,-999.0000,8.8,-999,8.0,96.0,,-999.0000,30.8260,-999.0000,12.7
2023-09-21 07:00:00,2023-09-21 00:00:00,-999.0000,49.10,-999.00,7.9000,7.3013,-999.0000,8.6,-999,7.6,96.0,,-999.0000,30.8260,-999.0000,12.7
2023-09-21 07:15:00,2023-09-21 00:15:00,-999.0000,49.10,-999.00,7.6000,7.0028,-999.0000,8.6,-999,7.4,96.0,,-999.0000,30.8190,-999.0000,12.7
2023-09-21 07:30:00,2023-09-21 00:30:00,-999.0000,49.10,-999.00,7.4000,6.9548,-999.0000,8.5,-999,7.4,97.0,,-999.0000,30.8190,-999.0000,12.7
2023-09-21 07:45:00,2023-09-21 00:45:00,-999.0000,49.10,-999.00,7.3000,6.7042,-999.0000,8.3,-999,7.2,96.0,,-999.0000,30.8260,-999.0000,12.7
2023-09-21 08:00:00,2023-09-21 01:00:00,-999.0000,49.10,-999.00,6.9000,6.1542,-999.0000,8.1,-999,6.9,95.0,,-999.0000,30.8220,-999.0000,12.7
2023-09-21 08:15:00,2023-09-21 01:15:00,-999.0000,49.10,-999.00,6.6000,6.0075,-999.0000,8.1,-999,6.6,96.0,,-999.0000,30.8290,-999.0000,12.6
2023-09-21 08:30:00,2023-09-21 01:30:00,-999.0000,49.10,-999.00,6.3000,5.7089,-999.0000,7.9,-999,6.4,96.0,,-999.0000,30.8290,-999.0000,12.6
2023-09-21 08:45:00,2023-09-21 01:45:00,-999.0000,49.10,-999.00,6.1000,5.6594,-999.0000,7.6,-999,6.0,97.0,,-999.0000,30.8360,-999.0000,12.6
2023-09-21 09:00:00,2023-09-21 02:00:00,-999.0000,49.10,-999.00,5.8000,5.2113,-999.0000,7.4,-999,5.6,96.0,,-999.0000,30.8320,-999.0000,12.6
2023-09-21 09:15:00,2023-09-21 02:15:00,-999.0000,49.10,-999.00,5.5000,4.9127,-999.0000,7.1,-999,5.3,96.0,,-999.0000,30.8320,-999.0000,12.6
2023-09-21 09:30:00,2023-09-21 02:30:00,-999.0000,49.10,-999.00,5.4000,4.9619,-999.0000,6.7,-999,5.1,97.0,,-999.0000,30.8360,-999.0000,12.6
2023-09-21 09:45:00,2023-09-21 02:45:00,-999.0000,49.10,-999.00,5.1000,4.6629,-999.0000,6.5,-999,4.8,97.0,,-999.0000,30.8290,-999.0000,12.6
2023-09-21 10:00:00,2023-09-21 03:00:00,-999.0000,49.10,-999.00,5.0000,4.5633,-999.0000,6.2,-999,4.7,97.0,,-999.0000,30.8260,-999.0000,12.6
2023-09-21 10:15:00,2023-09-21 03:15:00,-999.0000,49.10,-999.00,4.8000,4.3640,-999.0000,5.8,-999,4.5,97.0,,-999.0000,30.8190,-999.0000,12.6
2023-09-21 10:30:00,2023-09-21 03:30:00,-999.0000,49.10,-999.00,4.7000,4.2643,-999.0000,5.7,-999,4.4,97.0,,-999.0000,30.8220,-999.0000,12.6
2023-09-21 10:45:00,2023-09-21 03:45:00,-999.0000,49.10,-999.00,4.5000,4.0651,-999.0000,5.5,-999,4.3,97.0,,-999.0000,30.8190,-999.0000,12.6
2023-09-21 11:00:00,2023-09-21 04:00:00,-999.0000,49.10,-999.00,4.5000,4.2113,-999.0000,5.3,-999,4.2,98.0,,-999.0000,30.8220,-999.0000,12.6
2023-09-21 11:15:00,2023-09-21 04:15:00,-999.0000,49.10,-999.00,4.4000,4.1116,-999.0000,5.1,-999,4.2,98.0,,-999.0000,30.8160,-999.0000,12.6
2023-09-21 11:30:00,2023-09-21 04:30:00,-999.0000,49.10,-999.00,4.3000,4.0118,-999.0000,5.0,-999,4.0,98.0,,-999.0000,30.8160,-999.0000,12.5
2023-09-21 11:45:00,2023-09-21 04:45:00,-999.0000,49.10,-999.00,4.1000,3.6665,-999.0000,5.0,-999,3.8,97.0,,-999.0000,30.8190,-999.0000,12.5
2023-09-21 12:00:00,2023-09-21 05:00:00,-999.0000,49.10,-999.00,4.0000,3.7125,-999.0000,4.6,-999,3.7,98.0,,-999.0000,30.8220,-999.0000,12.5
2023-09-21 12:15:00,2023-09-21 05:15:00,-999.0000,49.10,-999.00,4.0000,3.7125,-999.0000,4.6,-999,3.6,98.0,,-999.0000,30.8290,-999.0000,12.5
2023-09-21 12:30:00,2023-09-21 05:30:00,-999.0000,49.10,-999.00,3.9000,3.6127,-999.0000,4.4,-999,3.6,98.0,,-999.0000,30.8190,-999.0000,12.5
2023-09-21 12:45:00,2023-09-21 05:45:00,-999.0000,49.10,-999.00,3.8000,3.5130,-999.0000,4.4,-999,3.5,98.0,,-999.0000,30.8160,-999.0000,12.5
2023-09-21 13:00:00,2023-09-21 06:00:00,-999.0000,49.10,-999.00,3.7000,3.4132,-999.0000,4.3,-999,3.5,98.0,,-999.0000,30.8160,-999.0000,12.5
2023-09-21 13:15:00,2023-09-21 06:15:00,-999.0000,49.10,-999.00,3.8000,3.5130,-999.0000,4.3,-999,3.6,98.0,,-999.0000,30.8160,-999.0000,12.5
2023-09-21 13:30:00,2023-09-21 06:30:00,-999.0000,49.10,-999.00,3.8000,3.6571,-999.0000,4.3,-999,3.7,99.0,,-999.0000,30.8190,-999.0000,12.5
2023-09-21 13:45:00,2023-09-21 06:45:00,-999.0000,49.10,-999.00,4.0000,3.8569,-999.0000,4.3,-999,4.0,99.0,,-999.0000,30.8220,-999.0000,12.5
2023-09-21 14:00:00,2023-09-21 07:00:00,-999.0000,49.10,-999.00,4.3000,4.1565,-999.0000,4.3,-999,4.3,99.0,,-999.0000,30.8220,-999.0000,12.5
2023-09-21 14:15:00,2023-09-21 07:15:00,-999.0000,49.10,-999.00,4.5000,4.3563,-999.0000,4.4,-999,4.5,99.0,,-999.0000,30.8160,-999.0000,12.5
2023-09-21 14:30:00,2023-09-21 07:30:00,-999.0000,49.10,-999.00,4.8000,4.5106,-999.0000,4.6,-999,4.7,98.0,,-999.0000,30.8160,-999.0000,12.5
2023-09-21 14:45:00,2023-09-21 07:45:00,-999.0000,49.10,-999.00,4.9000,4.6104,-999.0000,4.8,-999,4.9,98.0,,-999.0000,30.8160,-999.0000,12.5
2023-09-21 15:00:00,2023-09-21 08:00:00,-999.0000,49.10,-999.00,5.1000,4.8099,-999.0000,5.0,-999,5.0,98.0,,-999.0000,30.8160,-999.0000,12.5
2023-09-21 15:15:00,2023-09-21 08:15:00,-999.0000,49.10,-999.00,5.1000,4.6629,-999.0000,5.3,-999,5.1,97.0,,-999.0000,30.8160,-999.0000,12.6
2023-09-21 15:30:00,2023-09-21 08:30:00,-999.0000,49.10,-999.00,5.0000,4.5633,-999.0000,5.5,-999,5.0,97.0,,-999.0000,30.8090,-999.0000,12.6
2023-09-21 15:45:00,2023-09-21 08:45:00,-999.0000,49.10,-999.00,4.8000,4.3640,-999.0000,5.7,-999,4.8,97.0,,-999.0000,30.8090,-999.0000,12.6
2023-09-21 16:00:00,2023-09-21 09:00:00,-999.0000,49.10,-999.00,4.8000,4.3640,-999.0000,5.7,-999,4.7,97.0,,-999.0000,30.8120,-999.0000,12.6
2023-09-21 16:15:00,2023-09-21 09:15:00,-999.0000,49.10,-999.00,4.8000,4.5106,-999.0000,5.7,-999,4.9,98.0,,-999.0000,30.8120,-999.0000,12.6
2023-09-21 16:30:00,2023-09-21 09:30:00,-999.0000,49.10,-999.00,6.0000,5.2595,-999.0000,5.8,-999,5.4,95.0,,-999.0000,30.8090,-999.0000,13.0
2023-09-21 16:45:00,2023-09-21 09:45:00,-999.0000,49.10,-999.00,7.3000,5.9278,-999.0000,6.9,-999,6.4,91.0,,-999.0000,30.8120,-999.0000,13.6
2023-09-21 17:00:00,2023-09-21 10:00:00,-999.0000,49.10,-999.00,8.0000,6.4594,-999.0000,8.8,-999,7.3,90.0,,-999.0000,30.8090,-999.0000,14.1
2023-09-21 17:15:00,2023-09-21 10:15:00,-999.0000,49.10,-999.00,9.3000,7.2467,-999.0000,11.1,-999,8.4,87.0,,-999.0000,30.8020,-999.0000,14.5
2023-09-21 17:30:00,2023-09-21 10:30:00,-999.0000,49.10,-999.00,9.4000,7.3451,-999.0000,13.2,-999,9.6,87.0,,-999.0000,30.8020,-999.0000,13.8
2023-09-21 17:45:00,2023-09-21 10:45:00,-999.0000,49.10,-999.00,10.4000,7.8123,-999.0000,15.3,-999,10.5,84.0,,-999.0000,30.7960,-999.0000,14.0
2023-09-21 18:00:00,2023-09-21 11:00:00,-999.0000,49.10,-999.00,11.0000,8.2234,-999.0000,17.6,-999,11.6,83.0,,-999.0000,30.8020,-999.0000,13.8
2023-09-21 18:15:00,2023-09-21 11:15:00,-999.0000,49.10,-999.00,12.0000,8.6560,-999.0000,19.7,-999,12.3,80.0,,-999.0000,30.7960,-999.0000,13.9
2023-09-21 18:30:00,2023-09-21 11:30:00,-999.0000,49.10,-999.00,11.8000,8.4612,-999.0000,21.5,-999,13.5,80.0,,-999.0000,30.7960,-999.0000,13.9
2023-09-21 18:45:00,2023-09-21 11:45:00,-999.0000,49.10,-999.00,12.8000,7.8770,-999.0000,23.2,-999,13.9,72.0,,-999.0000,30.7990,-999.0000,13.7
2023-09-21 19:00:00,2023-09-21 12:00:00,-999.0000,49.10,-999.00,13.5000,8.9558,-999.0000,24.6,-999,15.5,74.0,,-999.0000,30.7920,-999.0000,13.9
2023-09-21 19:15:00,2023-09-21 12:15:00,-999.0000,49.10,-999.00,14.2000,6.7843,-999.0000,26.1,-999,16.9,61.0,,-999.0000,30.7860,-999.0000,14.3
2023-09-21 19:30:00,2023-09-21 12:30:00,-999.0000,49.10,-999.00,14.6000,8.0932,-999.0000,27.1,-999,17.8,65.0,,-999.0000,30.7890,-999.0000,13.7
2023-09-21 19:45:00,2023-09-21 12:45:00,-999.0000,49.10,-999.00,14.8000,8.0548,-999.0000,27.8,-999,18.3,64.0,,-999.0000,30.7820,-999.0000,13.8
2023-09-21 20:00:00,2023-09-21 13:00:00,-999.0000,49.10,-999.00,15.5000,8.4858,-999.0000,28.2,-999,19.2,63.0,,-999.0000,30.7790,-999.0000,13.8
2023-09-21 20:15:00,2023-09-21 13:15:00,-999.0000,49.10,-999.00,15.6000,8.1045,-999.0000,28.7,-999,20.2,61.0,,-999.0000,30.7750,-999.0000,14.1
2023-09-21 20:30:00,2023-09-21 13:30:00,-999.0000,49.10,-999.00,15.9000,8.6276,-999.0000,29.2,-999,21.5,62.0,,-999.0000,30.7790,-999.0000,14.1
2023-09-21 20:45:00,2023-09-21 13:45:00,-999.0000,49.10,-999.00,16.3000,8.7645,-999.0000,29.9,-999,22.2,61.0,,-999.0000,30.7720,-999.0000,13.7
2023-09-21 21:00:00,2023-09-21 14:00:00,-999.0000,49.10,-999.00,16.2000,8.9109,-999.0000,30.4,-999,22.9,62.0,,-999.0000,30.7620,-999.0000,13.6
2023-09-21 21:15:00,2023-09-21 14:15:00,-999.0000,49.10,-999.00,16.7000,9.8563,-999.0000,31.3,-999,23.7,64.0,,-999.0000,30.7590,-999.0000,14.2
2023-09-21 21:30:00,2023-09-21 14:30:00,-999.0000,49.10,-999.00,16.7000,9.1416,-999.0000,32.0,-999,23.3,61.0,,-999.0000,30.7590,-999.0000,13.8
2023-09-21 21:45:00,2023-09-21 14:45:00,-999.0000,49.10,-999.00,16.6000,8.8023,-999.0000,32.2,-999,23.0,60.0,,-999.0000,30.7490,-999.0000,13.9
2023-09-21 22:00:00,2023-09-21 15:00:00,-999.0000,49.10,-999.00,16.8000,8.4888,-999.0000,32.0,-999,23.0,58.0,,-999.0000,30.7450,-999.0000,13.8
2023-09-21 22:15:00,2023-09-21 15:15:00,-999.0000,49.10,-999.00,17.1000,8.5127,-999.0000,32.2,-999,23.0,57.0,,-999.0000,30.7450,-999.0000,13.6
2023-09-21 22:30:00,2023-09-21 15:30:00,-999.0000,49.10,-999.00,16.9000,8.5825,-999.0000,32.2,-999,22.5,58.0,,-999.0000,30.7450,-999.0000,13.7
2023-09-21 22:45:00,2023-09-21 15:45:00,-999.0000,49.10,-999.00,17.0000,8.6762,-999.0000,32.2,-999,21.7,58.0,,-999.0000,30.7420,-999.0000,13.9
2023-09-21 23:00:00,2023-09-21 16:00:00,-999.0000,49.10,-999.00,16.9000,8.3257,-999.0000,32.0,-999,19.1,57.0,,-999.0000,30.7390,-999.0000,14.1
2023-09-21 23:15:00,2023-09-21 16:15:00,-999.0000,49.10,-999.00,16.9000,8.8354,-999.0000,31.0,-999,17.8,59.0,,-999.0000,30.7490,-999.0000,13.7
2023-09-21 23:30:00,2023-09-21 16:30:00,-999.0000,49.10,-999.00,16.6000,9.5268,-999.0000,28.5,-999,17.3,63.0,,-999.0000,30.7420,-999.0000,14.1
2023-09-21 23:45:00,2023-09-21 16:45:00,-999.0000,49.10,-999.00,15.9000,8.6276,-999.0000,25.9,-999,17.2,62.0,,-999.0000,30.7450,-999.0000,13.8
2023-09-22 00:00:00,2023-09-21 17:00:00,-999.0000,49.10,-999.00,16.1000,9.0536,-999.0000,23.8,-999,17.1,63.0,,-999.0000,30.7420,-999.0000,14.3
2023-09-22 00:15:00,2023-09-21 17:15:00,-999.0000,49.10,-999.00,15.7000,8.9082,-999.0000,22.4,-999,16.4,64.0,,-999.0000,30.7450,-999.0000,14.3
2023-09-22 00:30:00,2023-09-21 17:30:00,-999.0000,49.10,-999.00,15.5000,8.9482,-999.0000,21.1,-999,15.9,65.0,,-999.0000,30.7450,-999.0000,14.2
2023-09-22 00:45:00,2023-09-21 17:45:00,-999.0000,49.10,-999.00,15.2000,8.6632,-999.0000,19.9,-999,15.5,65.0,,-999.0000,30.7490,-999.0000,13.6
2023-09-22 01:00:00,2023-09-21 18:00:00,-999.0000,49.10,-999.00,15.0000,8.6989,-999.0000,19.0,-999,15.2,66.0,,-999.0000,30.7550,-999.0000,13.1
2023-09-22 01:15:00,2023-09-21 18:15:00,-999.0000,49.10,-999.00,14.5000,9.7175,-999.0000,18.1,-999,14.8,73.0,,-999.0000,30.7590,-999.0000,13.0
2023-09-22 01:30:00,2023-09-21 18:30:00,-999.0000,49.10,-999.00,13.3000,10.1078,-999.0000,17.6,-999,13.8,81.0,,-999.0000,30.7620,-999.0000,12.9
2023-09-22 01:45:00,2023-09-21 18:45:00,-999.0000,49.10,-999.00,12.8000,9.2481,-999.0000,16.7,-999,12.9,79.0,,-999.0000,30.7650,-999.0000,12.9
2023-09-22 02:00:00,2023-09-21 19:00:00,-999.0000,49.10,-999.00,12.2000,9.7520,-999.0000,15.9,-999,12.4,85.0,,-999.0000,30.7720,-999.0000,12.9
2023-09-22 02:15:00,2023-09-21 19:15:00,-999.0000,49.10,-999.00,11.8000,9.3596,-999.0000,15.2,-999,11.9,85.0,,-999.0000,30.7690,-999.0000,12.8
2023-09-22 02:30:00,2023-09-21 19:30:00,-999.0000,49.10,-999.00,11.3000,9.2142,-999.0000,14.6,-999,11.4,87.0,,-999.0000,30.7720,-999.0000,12.8
2023-09-22 02:45:00,2023-09-21 19:45:00,-999.0000,49.10,-999.00,10.9000,8.9901,-999.0000,13.9,-999,11.0,88.0,,-999.0000,30.7820,-999.0000,12.8
2023-09-22 03:00:00,2023-09-21 20:00:00,-999.0000,49.10,-999.00,10.7000,8.7931,-999.0000,13.2,-999,10.7,88.0,,-999.0000,30.7790,-999.0000,12.8
2023-09-22 03:15:00,2023-09-21 20:15:00,-999.0000,49.10,-999.00,10.4000,8.6646,-999.0000,12.9,-999,10.5,89.0,,-999.0000,30.7750,-999.0000,12.8
2023-09-22 03:30:00,2023-09-21 20:30:00,-999.0000,49.10,-999.00,10.1000,8.3686,-999.0000,12.2,-999,10.1,89.0,,-999.0000,30.7820,-999.0000,12.8
2023-09-22 03:45:00,2023-09-21 20:45:00,-999.0000,49.10,-999.00,9.8000,8.2373,-999.0000,11.8,-999,9.8,90.0,,-999.0000,30.7750,-999.0000,12.8
2023-09-22 04:00:00,2023-09-21 21:00:00,-999.0000,49.10,-999.00,9.6000,8.0398,-999.0000,11.5,-999,9.6,90.0,,-999.0000,30.7750,-999.0000,12.8
2023-09-22 04:15:00,2023-09-21 21:15:00,-999.0000,49.10,-999.00,9.4000,7.8422,-999.0000,11.1,-999,9.3,90.0,,-999.0000,30.7750,-999.0000,12.8
2023-09-22 04:30:00,2023-09-21 21:30:00,-999.0000,49.10,-999.00,9.2000,7.6447,-999.0000,10.8,-999,9.2,90.0,,-999.0000,30.7790,-999.0000,12.8
2023-09-22 04:45:00,2023-09-21 21:45:00,-999.0000,49.10,-999.00,9.1000,7.7080,-999.0000,10.4,-999,9.2,91.0,,-999.0000,30.7820,-999.0000,12.8
2023-09-22 05:00:00,2023-09-21 22:00:00,-999.0000,49.10,-999.00,8.9000,7.5102,-999.0000,10.2,-999,9.0,91.0,,-999.0000,30.7750,-999.0000,12.7
2023-09-22 05:15:00,2023-09-21 22:15:00,-999.0000,49.10,-999.00,8.8000,7.4113,-999.0000,9.9,-999,8.8,91.0,,-999.0000,30.7820,-999.0000,12.7
2023-09-22 05:30:00,2023-09-21 22:30:00,-999.0000,49.10,-999.00,8.8000,7.5715,-999.0000,9.7,-999,8.8,92.0,,-999.0000,30.7720,-999.0000,12.7
2023-09-22 05:45:00,2023-09-21 22:45:00,-999.0000,49.10,-999.00,8.7000,7.4724,-999.0000,9.5,-999,8.7,92.0,,-999.0000,30.7790,-999.0000,12.7
2023-09-22 06:00:00,2023-09-21 23:00:00,-999.0000,49.10,-999.00,8.6000,7.2135,-999.0000,9.4,-999,8.6,91.0,,-999.0000,30.7820,-999.0000,12.7
2023-09-22 06:15:00,2023-09-21 23:15:00,-999.0000,49.10,-999.00,8.5000,7.2744,-999.0000,9.4,-999,8.4,92.0,,-999.0000,30.7790,-999.0000,12.7
2023-09-22 06:30:00,2023-09-21 23:30:00,-999.0000,49.10,-999.00,8.4000,7.1754,-999.0000,9.2,-999,8.3,92.0,,-999.0000,30.7650,-999.0000,12.7
2023-09-22 06:45:00,2023-09-21 23:45:00,-999.0000,49.10,-999.00,8.3000,7.0763,-999.0000,9.0,-999,8.3,92.0,,-999.0000,30.7650,-999.0000,12.7
2023-09-22 07:00:00,2023-09-22 00:00:00,-999.0000,49.10,-999.00,8.2000,6.9773,-999.0000,9.0,-999,8.2,92.0,,-999.0000,30.7620,-999.0000,12.7
2023-09-22 07:15:00,2023-09-22 00:15:00,-999.0000,49.10,-999.00,8.2000,6.9773,-999.0000,8.8,-999,8.2,92.0,,-999.0000,30.7590,-999.0000,12.7
2023-09-22 07:30:00,2023-09-22 00:30:00,-999.0000,49.10,-999.00,8.3000,6.9168,-999.0000,8.8,-999,8.3,91.0,,-999.0000,30.7550,-999.0000,12.7
2023-09-22 07:45:00,2023-09-22 00:45:00,-999.0000,49.10,-999.00,8.5000,7.1146,-999.0000,8.8,-999,8.5,91.0,,-999.0000,30.7550,-999.0000,12.7
2023-09-22 08:00:00,2023-09-22 01:00:00,-999.0000,49.10,-999.00,8.5000,7.1146,-999.0000,8.8,-999,8.5,91.0,,-999.0000,30.7590,-999.0000,12.7
2023-09-22 08:15:00,2023-09-22 01:15:00,-999.0000,49.10,-999.00,8.5000,7.1146,-999.0000,8.8,-999,8.5,91.0,,-999.0000,30.7550,-999.0000,12.7
2023-09-22 08:30:00,2023-09-22 01:30:00,-999.0000,49.10,-999.00,8.5000,7.2744,-999.0000,8.8,-999,8.4,92.0,,-999.0000,30.7590,-999.0000,12.7
2023-09-22 08:45:00,2023-09-22 01:45:00,-999.0000,49.10,-999.00,8.5000,7.1146,-999.0000,8.8,-999,8.4,91.0,,-999.0000,30.7620,-999.0000,12.7
2023-09-22 09:00:00,2023-09-22 02:00:00,-999.0000,49.10,-999.00,8.3000,7.0763,-999.0000,8.8,-999,8.3,92.0,,-999.0000,30.7590,-999.0000,12.7
2023-09-22 09:15:00,2023-09-22 02:15:00,-999.0000,49.10,-999.00,8.2000,6.9773,-999.0000,8.8,-999,8.1,92.0,,-999.0000,30.7520,-999.0000,12.7
2023-09-22 09:30:00,2023-09-22 02:30:00,-999.0000,49.10,-999.00,8.2000,6.9773,-999.0000,8.6,-999,8.1,92.0,,-999.0000,30.7590,-999.0000,12.6
2023-09-22 09:45:00,2023-09-22 02:45:00,-999.0000,49.10,-999.00,8.1000,6.8783,-999.0000,8.6,-999,8.0,92.0,,-999.0000,30.7590,-999.0000,12.7
2023-09-22 10:00:00,2023-09-22 03:00:00,-999.0000,49.10,-999.00,7.9000,6.6802,-999.0000,8.5,-999,7.8,92.0,,-999.0000,30.7620,-999.0000,12.6
2023-09-22 10:15:00,2023-09-22 03:15:00,-999.0000,49.10,-999.00,7.8000,6.5812,-999.0000,8.5,-999,7.7,92.0,,-999.0000,30.7620,-999.0000,12.6
2023-09-22 10:30:00,2023-09-22 03:30:00,-999.0000,49.10,-999.00,7.7000,6.4821,-999.0000,8.5,-999,7.5,92.0,,-999.0000,30.7590,-999.0000,12.6
2023-09-22 10:45:00,2023-09-22 03:45:00,-999.0000,49.10,-999.00,7.5000,6.4411,-999.0000,8.3,-999,7.4,93.0,,-999.0000,30.7620,-999.0000,12.6
2023-09-22 11:00:00,2023-09-22 04:00:00,-999.0000,49.10,-999.00,7.4000,6.3419,-999.0000,8.1,-999,7.2,93.0,,-999.0000,30.7650,-999.0000,12.6
2023-09-22 11:15:00,2023-09-22 04:15:00,-999.0000,49.10,-999.00,7.2000,6.1436,-999.0000,7.9,-999,7.1,93.0,,-999.0000,30.7590,-999.0000,12.6
2023-09-22 11:30:00,2023-09-22 04:30:00,-999.0000,49.10,-999.00,7.2000,6.1436,-999.0000,7.9,-999,7.0,93.0,,-999.0000,30.7590,-999.0000,12.6
2023-09-22 11:45:00,2023-09-22 04:45:00,-999.0000,49.10,-999.00,7.0000,6.1002,-999.0000,7.8,-999,6.9,94.0,,-999.0000,30.7520,-999.0000,12.6
2023-09-22 12:00:00,2023-09-22 05:00:00,-999.0000,49.10,-999.00,7.0000,5.9453,-999.0000,7.6,-999,6.8,93.0,,-999.0000,30.7550,-999.0000,12.6
2023-09-22 12:15:00,2023-09-22 05:15:00,-999.0000,49.10,-999.00,6.9000,5.8461,-999.0000,7.6,-999,6.7,93.0,,-999.0000,30.7490,-999.0000,12.6
2023-09-22 12:30:00,2023-09-22 05:30:00,-999.0000,49.10,-999.00,6.9000,5.8461,-999.0000,7.4,-999,6.7,93.0,,-999.0000,30.7550,-999.0000,12.6
2023-09-22 12:45:00,2023-09-22 05:45:00,-999.0000,49.10,-999.00,6.8000,5.7470,-999.0000,7.2,-999,6.7,93.0,,-999.0000,30.7520,-999.0000,12.6
2023-09-22 13:00:00,2023-09-22 06:00:00,-999.0000,49.10,-999.00,6.8000,5.7470,-999.0000,7.2,-999,6.6,93.0,,-999.0000,30.7520,-999.0000,12.6
2023-09-22 13:15:00,2023-09-22 06:15:00,-999.0000,49.10,-999.00,6.8000,5.7470,-999.0000,7.2,-999,6.6,93.0,,-999.0000,30.7520,-999.0000,12.6
2023-09-22 13:30:00,2023-09-22 06:30:00,-999.0000,49.10,-999.00,6.7000,5.6478,-999.0000,7.1,-999,6.5,93.0,,-999.0000,30.7450,-999.0000,12.6
2023-09-22 13:45:00,2023-09-22 06:45:00,-999.0000,49.10,-999.00,6.6000,5.5486,-999.0000,7.1,-999,6.5,93.0,,-999.0000,30.7550,-999.0000,12.6
2023-09-22 14:00:00,2023-09-22 07:00:00,-999.0000,49.10,-999.00,6.6000,5.5486,-999.0000,7.1,-999,6.4,93.0,,-999.0000,30.7520,-999.0000,12.6
2023-09-22 14:15:00,2023-09-22 07:15:00,-999.0000,49.10,-999.00,6.6000,5.5486,-999.0000,6.9,-999,6.4,93.0,,-999.0000,30.7550,-999.0000,12.6
2023-09-22 14:30:00,2023-09-22 07:30:00,-999.0000,49.10,-999.00,6.6000,5.5486,-999.0000,7.1,-999,6.4,93.0,,-999.0000,30.7590,-999.0000,12.6
2023-09-22 14:45:00,2023-09-22 07:45:00,-999.0000,49.10,-999.00,6.6000,5.7030,-999.0000,6.9,-999,6.4,94.0,,-999.0000,30.7590,-999.0000,12.6
2023-09-22 15:00:00,2023-09-22 08:00:00,-999.0000,49.10,-999.00,6.7000,5.6478,-999.0000,6.9,-999,6.5,93.0,,-999.0000,30.7650,-999.0000,12.6
2023-09-22 15:15:00,2023-09-22 08:15:00,-999.0000,49.10,-999.00,6.9000,6.0009,-999.0000,6.9,-999,6.6,94.0,,-999.0000,30.7620,-999.0000,12.6
2023-09-22 15:30:00,2023-09-22 08:30:00,-999.0000,49.10,-999.00,6.9000,6.0009,-999.0000,7.1,-999,6.7,94.0,,-999.0000,30.7590,-999.0000,12.6
2023-09-22 15:45:00,2023-09-22 08:45:00,-999.0000,49.10,-999.00,7.0000,6.1002,-999.0000,7.2,-999,6.8,94.0,,-999.0000,30.7620,-999.0000,12.6
2023-09-22 16:00:00,2023-09-22 09:00:00,-999.0000,49.10,-999.00,7.1000,6.1994,-999.0000,7.2,-999,7.0,94.0,,-999.0000,30.7620,-999.0000,12.6
2023-09-22 16:15:00,2023-09-22 09:15:00,-999.0000,49.10,-999.00,7.5000,6.5966,-999.0000,7.4,-999,7.3,94.0,,-999.0000,30.7620,-999.0000,12.6
2023-09-22 16:30:00,2023-09-22 09:30:00,-999.0000,49.10,-999.00,8.1000,7.0360,-999.0000,7.6,-999,7.9,93.0,,-999.0000,30.7620,-999.0000,12.8
2023-09-22 16:45:00,2023-09-22 09:45:00,-999.0000,49.10,-999.00,9.5000,7.9410,-999.0000,8.3,-999,8.8,90.0,,-999.0000,30.7590,-999.0000,13.4
2023-09-22 17:00:00,2023-09-22 10:00:00,-999.0000,49.10,-999.00,10.8000,8.5514,-999.0000,10.2,-999,10.0,86.0,,-999.0000,30.7590,-999.0000,13.8
2023-09-22 17:15:00,2023-09-22 10:15:00,-999.0000,49.10,-999.00,12.1000,9.1194,-999.0000,12.5,-999,11.3,82.0,,-999.0000,30.7550,-999.0000,14.4
2023-09-22 17:30:00,2023-09-22 10:30:00,-999.0000,49.10,-999.00,13.2000,9.4473,-999.0000,14.8,-999,12.6,78.0,,-999.0000,30.7520,-999.0000,13.8
2023-09-22 17:45:00,2023-09-22 10:45:00,-999.0000,49.10,-999.00,14.4000,9.8241,-999.0000,17.6,-999,13.8,74.0,,-999.0000,30.7550,-999.0000,13.7
2023-09-22 18:00:00,2023-09-22 11:00:00,-999.0000,49.10,-999.00,15.0000,9.9928,-999.0000,20.3,-999,14.7,72.0,,-999.0000,30.7490,-999.0000,13.6
2023-09-22 18:15:00,2023-09-22 11:15:00,-999.0000,49.10,-999.00,16.1000,9.0536,-999.0000,22.7,-999,15.9,63.0,,-999.0000,30.7520,-999.0000,13.7
2023-09-22 18:30:00,2023-09-22 11:30:00,-999.0000,49.10,-999.00,17.4000,7.4412,-999.0000,25.2,-999,17.0,52.0,,-999.0000,30.7420,-999.0000,13.7
2023-09-22 18:45:00,2023-09-22 11:45:00,-999.0000,49.10,-999.00,18.5000,7.8808,-999.0000,27.1,-999,18.6,50.0,,-999.0000,30.7350,-999.0000,13.7
2023-09-22 19:00:00,2023-09-22 12:00:00,-999.0000,49.10,-999.00,18.8000,6.9346,-999.0000,28.7,-999,20.2,46.0,,-999.0000,30.7320,-999.0000,14.1
2023-09-22 19:15:00,2023-09-22 12:15:00,-999.0000,49.10,-999.00,20.5000,5.6932,-999.0000,29.9,-999,22.8,38.0,,-999.0000,30.7250,-999.0000,13.9
2023-09-22 19:30:00,2023-09-22 12:30:00,-999.0000,49.10,-999.00,20.6000,5.0032,-999.0000,31.0,-999,23.1,36.0,,-999.0000,30.7250,-999.0000,14.1
2023-09-22 19:45:00,2023-09-22 12:45:00,-999.0000,49.10,-999.00,21.2000,5.1286,-999.0000,31.7,-999,24.8,35.0,,-999.0000,30.7190,-999.0000,13.7
2023-09-22 20:00:00,2023-09-22 13:00:00,-999.0000,49.10,-999.00,21.3000,3.9341,-999.0000,32.0,-999,25.2,32.0,,-999.0000,30.7190,-999.0000,14.0
2023-09-22 20:15:00,2023-09-22 13:15:00,-999.0000,49.10,-999.00,21.2000,4.7125,-999.0000,32.4,-999,25.9,34.0,,-999.0000,30.7190,-999.0000,13.9
2023-09-22 20:30:00,2023-09-22 13:30:00,-999.0000,49.10,-999.00,21.6000,4.1960,-999.0000,32.7,-999,26.7,32.0,,-999.0000,30.7150,-999.0000,13.7
2023-09-22 20:45:00,2023-09-22 13:45:00,-999.0000,49.10,-999.00,21.8000,3.4517,-999.0000,32.9,-999,28.2,30.0,,-999.0000,30.7090,-999.0000,13.7
2023-09-22 21:00:00,2023-09-22 14:00:00,-999.0000,49.10,-999.00,21.2000,4.2855,-999.0000,33.1,-999,27.0,33.0,,-999.0000,30.7050,-999.0000,13.4
2023-09-22 21:15:00,2023-09-22 14:15:00,-999.0000,49.10,-999.00,21.6000,3.7438,-999.0000,33.3,-999,27.9,31.0,,-999.0000,30.6990,-999.0000,13.5
2023-09-22 21:30:00,2023-09-22 14:30:00,-999.0000,49.10,-999.00,21.6000,3.7438,-999.0000,33.4,-999,29.1,31.0,,-999.0000,30.6990,-999.0000,13.6
2023-09-22 21:45:00,2023-09-22 14:45:00,-999.0000,49.10,-999.00,21.4000,3.5698,-999.0000,33.6,-999,28.6,31.0,,-999.0000,30.6920,-999.0000,14.0
2023-09-22 22:00:00,2023-09-22 15:00:00,-999.0000,49.10,-999.00,22.1000,3.2306,-999.0000,33.8,-999,29.8,29.0,,-999.0000,30.6850,-999.0000,13.4
2023-09-22 22:15:00,2023-09-22 15:15:00,-999.0000,49.10,-999.00,22.2000,2.8207,-999.0000,34.5,-999,29.7,28.0,,-999.0000,30.6780,-999.0000,13.7
2023-09-22 22:30:00,2023-09-22 15:30:00,-999.0000,49.10,-999.00,22.4000,3.9714,-999.0000,34.5,-999,29.8,30.0,,-999.0000,30.6750,-999.0000,13.5
2023-09-22 22:45:00,2023-09-22 15:45:00,-999.0000,49.10,-999.00,22.1000,2.7348,-999.0000,34.3,-999,27.5,28.0,,-999.0000,30.6720,-999.0000,13.6
2023-09-22 23:00:00,2023-09-22 16:00:00,-999.0000,49.10,-999.00,21.9000,2.0519,-999.0000,33.8,-999,25.4,27.0,,-999.0000,30.6650,-999.0000,13.8
2023-09-22 23:15:00,2023-09-22 16:15:00,-999.0000,49.10,-999.00,22.3000,3.4032,-999.0000,32.9,-999,23.1,29.0,,-999.0000,30.6650,-999.0000,13.7
2023-09-22 23:30:00,2023-09-22 16:30:00,-999.0000,49.10,-999.00,22.1000,3.7116,-999.0000,31.3,-999,22.7,30.0,,-999.0000,30.6620,-999.0000,13.8
2023-09-22 23:45:00,2023-09-22 16:45:00,-999.0000,49.10,-999.00,21.5000,3.1918,-999.0000,29.4,-999,22.7,30.0,,-999.0000,30.6580,-999.0000,14.0
2023-09-23 00:00:00,2023-09-22 17:00:00,-999.0000,49.10,-999.00,21.5000,4.5483,-999.0000,28.0,-999,22.4,33.0,,-999.0000,30.6580,-999.0000,14.0
2023-09-23 00:15:00,2023-09-22 17:15:00,-999.0000,49.10,-999.00,21.2000,5.1286,-999.0000,27.1,-999,21.6,35.0,,-999.0000,30.6620,-999.0000,13.4
2023-09-23 00:30:00,2023-09-22 17:30:00,-999.0000,49.10,-999.00,20.7000,4.2729,-999.0000,25.9,-999,20.9,34.0,,-999.0000,30.6580,-999.0000,13.8
2023-09-23 00:45:00,2023-09-22 17:45:00,-999.0000,49.10,-999.00,19.9000,6.2562,-999.0000,24.8,-999,20.0,41.0,,-999.0000,30.6580,-999.0000,13.2
2023-09-23 01:00:00,2023-09-22 18:00:00,-999.0000,49.10,-999.00,19.3000,6.0654,-999.0000,23.8,-999,19.3,42.0,,-999.0000,30.6620,-999.0000,13.0
2023-09-23 01:15:00,2023-09-22 18:15:00,-999.0000,49.10,-999.00,17.3000,8.4381,-999.0000,22.9,-999,17.7,56.0,,-999.0000,30.6620,-999.0000,12.9
2023-09-23 01:30:00,2023-09-22 18:30:00,-999.0000,49.10,-999.00,16.2000,8.1781,-999.0000,21.8,-999,16.5,59.0,,-999.0000,30.6650,-999.0000,12.9
2023-09-23 01:45:00,2023-09-22 18:45:00,-999.0000,49.10,-999.00,15.4000,8.3911,-999.0000,20.6,-999,15.7,63.0,,-999.0000,30.6680,-999.0000,12.9
2023-09-23 02:00:00,2023-09-22 19:00:00,-999.0000,49.10,-999.00,14.7000,7.7285,-999.0000,19.5,-999,14.9,63.0,,-999.0000,30.6750,-999.0000,12.8
2023-09-23 02:15:00,2023-09-22 19:15:00,-999.0000,49.10,-999.00,14.4000,7.6754,-999.0000,18.5,-999,14.4,64.0,,-999.0000,30.6750,-999.0000,12.8
2023-09-23 02:30:00,2023-09-22 19:30:00,-999.0000,49.10,-999.00,13.9000,7.8727,-999.0000,17.6,-999,13.9,67.0,,-999.0000,30.6780,-999.0000,12.8
2023-09-23 02:45:00,2023-09-22 19:45:00,-999.0000,49.10,-999.00,13.5000,7.2710,-999.0000,16.7,-999,13.5,66.0,,-999.0000,30.6850,-999.0000,12.8
2023-09-23 03:00:00,2023-09-22 20:00:00,-999.0000,49.10,-999.00,13.1000,6.8902,-999.0000,16.2,-999,13.1,66.0,,-999.0000,30.6950,-999.0000,12.8
2023-09-23 03:15:00,2023-09-22 20:15:00,-999.0000,49.10,-999.00,12.7000,6.9441,-999.0000,15.5,-999,12.8,68.0,,-999.0000,30.7020,-999.0000,12.8
2023-09-23 03:30:00,2023-09-22 20:30:00,-999.0000,49.10,-999.00,12.4000,6.4420,-999.0000,15.0,-999,12.5,67.0,,-999.0000,30.7020,-999.0000,12.8
2023-09-23 03:45:00,2023-09-22 20:45:00,-999.0000,49.10,-999.00,12.1000,6.7925,-999.0000,14.3,-999,12.2,70.0,,-999.0000,30.6890,-999.0000,12.8
2023-09-23 04:00:00,2023-09-22 21:00:00,-999.0000,49.10,-999.00,11.9000,6.8072,-999.0000,13.9,-999,11.9,71.0,,-999.0000,30.6990,-999.0000,12.8
2023-09-23 04:15:00,2023-09-22 21:15:00,-999.0000,49.10,-999.00,11.6000,6.7226,-999.0000,13.4,-999,11.7,72.0,,-999.0000,30.6890,-999.0000,12.8
2023-09-23 04:30:00,2023-09-22 21:30:00,-999.0000,49.10,-999.00,11.4000,6.5302,-999.0000,13.0,-999,11.4,72.0,,-999.0000,30.6920,-999.0000,12.8
2023-09-23 04:45:00,2023-09-22 21:45:00,-999.0000,49.10,-999.00,11.2000,6.9318,-999.0000,12.9,-999,11.3,75.0,,-999.0000,30.6890,-999.0000,12.8
2023-09-23 05:00:00,2023-09-22 22:00:00,-999.0000,49.10,-999.00,11.2000,6.7362,-999.0000,12.3,-999,11.1,74.0,,-999.0000,30.6850,-999.0000,12.7
2023-09-23 05:15:00,2023-09-22 22:15:00,-999.0000,49.10,-999.00,11.1000,6.8352,-999.0000,12.3,-999,11.0,75.0,,-999.0000,30.6850,-999.0000,12.7
2023-09-23 05:30:00,2023-09-22 22:30:00,-999.0000,49.10,-999.00,10.9000,6.8347,-999.0000,12.0,-999,10.9,76.0,,-999.0000,30.6920,-999.0000,12.7
2023-09-23 05:45:00,2023-09-22 22:45:00,-999.0000,49.10,-999.00,10.8000,6.7379,-999.0000,11.8,-999,10.8,76.0,,-999.0000,30.6890,-999.0000,12.7
2023-09-23 06:00:00,2023-09-22 23:00:00,-999.0000,49.10,-999.00,10.8000,6.9284,-999.0000,11.6,-999,10.7,77.0,,-999.0000,30.6750,-999.0000,12.7
2023-09-23 06:15:00,2023-09-22 23:15:00,-999.0000,49.10,-999.00,10.7000,6.6411,-999.0000,11.6,-999,10.7,76.0,,-999.0000,30.6850,-999.0000,12.7
2023-09-23 06:30:00,2023-09-22 23:30:00,-999.0000,49.10,-999.00,10.6000,6.5443,-999.0000,11.5,-999,10.6,76.0,,-999.0000,30.6920,-999.0000,12.7
2023-09-23 06:45:00,2023-09-22 23:45:00,-999.0000,49.10,-999.00,10.6000,6.3518,-999.0000,11.3,-999,10.6,75.0,,-999.0000,30.6890,-999.0000,12.7
2023-09-23 07:00:00,2023-09-23 00:00:00,-999.0000,49.10,-999.00,10.7000,6.4485,-999.0000,11.3,-999,10.6,75.0,,-999.0000,30.6990,-999.0000,12.7
2023-09-23 07:15:00,2023-09-23 00:15:00,-999.0000,49.10,-999.00,10.6000,6.3518,-999.0000,11.1,-999,10.6,75.0,,-999.0000,30.6920,-999.0000,12.7
2023-09-23 07:30:00,2023-09-23 00:30:00,-999.0000,49.10,-999.00,10.6000,6.3518,-999.0000,11.1,-999,10.5,75.0,,-999.0000,30.6950,-999.0000,12.7
2023-09-23 07:45:00,2023-09-23 00:45:00,-999.0000,49.10,-999.00,10.5000,6.2551,-999.0000,11.1,-999,10.4,75.0,,-999.0000,30.6950,-999.0000,12.7
2023-09-23 08:00:00,2023-09-23 01:00:00,-999.0000,49.10,-999.00,10.3000,6.4436,-999.0000,10.9,-999,10.3,77.0,,-999.0000,30.6950,-999.0000,12.7
2023-09-23 08:15:00,2023-09-23 01:15:00,-999.0000,49.10,-999.00,10.2000,5.9651,-999.0000,10.9,-999,10.2,75.0,,-999.0000,30.6820,-999.0000,12.7
2023-09-23 08:30:00,2023-09-23 01:30:00,-999.0000,49.10,-999.00,10.3000,6.2538,-999.0000,10.8,-999,10.2,76.0,,-999.0000,30.6750,-999.0000,12.7
2023-09-23 08:45:00,2023-09-23 01:45:00,-999.0000,49.10,-999.00,10.4000,5.7672,-999.0000,10.8,-999,10.3,73.0,,-999.0000,30.6780,-999.0000,12.7
2023-09-23 09:00:00,2023-09-23 02:00:00,-999.0000,49.10,-999.00,10.5000,5.2581,-999.0000,10.8,-999,10.3,70.0,,-999.0000,30.6750,-999.0000,12.7
2023-09-23 09:15:00,2023-09-23 02:15:00,-999.0000,49.10,-999.00,10.4000,5.3664,-999.0000,10.8,-999,10.2,71.0,,-999.0000,30.6720,-999.0000,12.7
2023-09-23 09:30:00,2023-09-23 02:30:00,-999.0000,49.10,-999.00,10.4000,5.3664,-999.0000,10.8,-999,10.2,71.0,,-999.0000,30.6720,-999.0000,12.6
2023-09-23 09:45:00,2023-09-23 02:45:00,-999.0000,49.10,-999.00,10.4000,5.5680,-999.0000,10.8,-999,10.2,72.0,,-999.0000,30.6620,-999.0000,12.6
2023-09-23 10:00:00,2023-09-23 03:00:00,-999.0000,49.10,-999.00,10.4000,5.1622,-999.0000,10.8,-999,10.2,70.0,,-999.0000,30.6620,-999.0000,12.6
2023-09-23 10:15:00,2023-09-23 03:15:00,-999.0000,49.10,-999.00,10.3000,5.4718,-999.0000,10.8,-999,10.2,72.0,,-999.0000,30.6580,-999.0000,12.6
2023-09-23 10:30:00,2023-09-23 03:30:00,-999.0000,49.10,-999.00,10.3000,5.4718,-999.0000,10.8,-999,10.2,72.0,,-999.0000,30.6580,-999.0000,12.6
2023-09-23 10:45:00,2023-09-23 03:45:00,-999.0000,49.10,-999.00,10.4000,5.7672,-999.0000,10.8,-999,10.3,73.0,,-999.0000,30.6580,-999.0000,12.6
2023-09-23 11:00:00,2023-09-23 04:00:00,-999.0000,49.10,-999.00,10.4000,5.7672,-999.0000,10.8,-999,10.3,73.0,,-999.0000,30.6580,-999.0000,12.6
2023-09-23 11:15:00,2023-09-23 04:15:00,-999.0000,49.10,-999.00,10.4000,5.7672,-999.0000,10.8,-999,10.3,73.0,,-999.0000,30.6620,-999.0000,12.6
2023-09-23 11:30:00,2023-09-23 04:30:00,-999.0000,49.10,-999.00,10.4000,5.7672,-999.0000,10.8,-999,10.3,73.0,,-999.0000,30.6620,-999.0000,12.6
2023-09-23 11:45:00,2023-09-23 04:45:00,-999.0000,49.10,-999.00,10.4000,5.9640,-999.0000,10.8,-999,10.3,74.0,,-999.0000,30.6580,-999.0000,12.6
2023-09-23 12:00:00,2023-09-23 05:00:00,-999.0000,49.10,-999.00,10.4000,5.7672,-999.0000,10.8,-999,10.3,73.0,,-999.0000,30.6650,-999.0000,12.6
2023-09-23 12:15:00,2023-09-23 05:15:00,-999.0000,49.10,-999.00,10.3000,5.8675,-999.0000,10.8,-999,10.3,74.0,,-999.0000,30.6580,-999.0000,12.6
2023-09-23 12:30:00,2023-09-23 05:30:00,-999.0000,49.10,-999.00,10.3000,5.8675,-999.0000,10.8,-999,10.2,74.0,,-999.0000,30.6580,-999.0000,12.6
2023-09-23 12:45:00,2023-09-23 05:45:00,-999.0000,49.10,-999.00,10.2000,6.1569,-999.0000,10.8,-999,10.0,76.0,,-999.0000,30.6620,-999.0000,12.6
2023-09-23 13:00:00,2023-09-23 06:00:00,-999.0000,49.10,-999.00,10.1000,5.8684,-999.0000,10.8,-999,10.0,75.0,,-999.0000,30.6620,-999.0000,12.6
2023-09-23 13:15:00,2023-09-23 06:15:00,-999.0000,49.10,-999.00,10.0000,5.9633,-999.0000,10.8,-999,9.9,76.0,,-999.0000,30.6620,-999.0000,12.6
2023-09-23 13:30:00,2023-09-23 06:30:00,-999.0000,49.10,-999.00,10.0000,5.9633,-999.0000,10.8,-999,9.8,76.0,,-999.0000,30.6620,-999.0000,12.6
2023-09-23 13:45:00,2023-09-23 06:45:00,-999.0000,49.10,-999.00,9.8000,5.7696,-999.0000,10.6,-999,9.7,76.0,,-999.0000,30.6650,-999.0000,12.6
2023-09-23 14:00:00,2023-09-23 07:00:00,-999.0000,49.10,-999.00,9.8000,5.9587,-999.0000,10.4,-999,9.7,77.0,,-999.0000,30.6720,-999.0000,12.6
2023-09-23 14:15:00,2023-09-23 07:15:00,-999.0000,49.10,-999.00,9.8000,5.7696,-999.0000,10.4,-999,9.7,76.0,,-999.0000,30.6720,-999.0000,12.6
2023-09-23 14:30:00,2023-09-23 07:30:00,-999.0000,49.10,-999.00,9.8000,6.1456,-999.0000,10.4,-999,9.7,78.0,,-999.0000,30.6780,-999.0000,12.6
2023-09-23 14:45:00,2023-09-23 07:45:00,-999.0000,49.10,-999.00,9.8000,6.1456,-999.0000,10.2,-999,9.7,78.0,,-999.0000,30.6680,-999.0000,12.6
2023-09-23 15:00:00,2023-09-23 08:00:00,-999.0000,49.10,-999.00,9.9000,6.2427,-999.0000,10.2,-999,9.9,78.0,,-999.0000,30.6780,-999.0000,12.6
2023-09-23 15:15:00,2023-09-23 08:15:00,-999.0000,49.10,-999.00,10.2000,6.3466,-999.0000,10.6,-999,10.2,77.0,,-999.0000,30.6780,-999.0000,12.6
2023-09-23 15:30:00,2023-09-23 08:30:00,-999.0000,49.10,-999.00,10.4000,6.5405,-999.0000,10.6,-999,10.4,77.0,,-999.0000,30.6780,-999.0000,12.6
2023-09-23 15:45:00,2023-09-23 08:45:00,-999.0000,49.10,-999.00,10.7000,6.8315,-999.0000,10.9,-999,10.6,77.0,,-999.0000,30.6750,-999.0000,12.6
2023-09-23 16:00:00,2023-09-23 09:00:00,-999.0000,49.10,-999.00,11.0000,6.9316,-999.0000,10.9,-999,11.1,76.0,,-999.0000,30.6850,-999.0000,12.7
2023-09-23 16:15:00,2023-09-23 09:15:00,-999.0000,49.10,-999.00,11.4000,7.6995,-999.0000,11.5,-999,11.4,78.0,,-999.0000,30.6780,-999.0000,12.7
2023-09-23 16:30:00,2023-09-23 09:30:00,-999.0000,49.10,-999.00,11.9000,7.2127,-999.0000,11.8,-999,12.0,73.0,,-999.0000,30.6850,-999.0000,12.7
2023-09-23 16:45:00,2023-09-23 09:45:00,-999.0000,49.10,-999.00,12.3000,6.1285,-999.0000,12.2,-999,12.2,66.0,,-999.0000,30.6850,-999.0000,12.7
2023-09-23 17:00:00,2023-09-23 10:00:00,-999.0000,49.10,-999.00,12.4000,6.8701,-999.0000,12.5,-999,12.5,69.0,,-999.0000,30.6850,-999.0000,12.8
2023-09-23 17:15:00,2023-09-23 10:15:00,-999.0000,49.10,-999.00,12.8000,5.9296,-999.0000,13.0,-999,13.0,63.0,,-999.0000,30.6890,-999.0000,12.8
2023-09-23 17:30:00,2023-09-23 10:30:00,-999.0000,49.10,-999.00,13.1000,5.9818,-999.0000,13.4,-999,13.2,62.0,,-999.0000,30.6920,-999.0000,12.9
2023-09-23 17:45:00,2023-09-23 10:45:00,-999.0000,49.10,-999.00,13.3000,6.1709,-999.0000,13.7,-999,13.4,62.0,,-999.0000,30.7020,-999.0000,12.9
2023-09-23 18:00:00,2023-09-23 11:00:00,-999.0000,49.10,-999.00,13.6000,5.7358,-999.0000,14.1,-999,13.6,59.0,,-999.0000,30.6920,-999.0000,13.0
2023-09-23 18:15:00,2023-09-23 11:15:00,-999.0000,49.10,-999.00,13.6000,5.4890,-999.0000,14.6,-999,13.6,58.0,,-999.0000,30.6920,-999.0000,13.0
2023-09-23 18:30:00,2023-09-23 11:30:00,-999.0000,49.10,-999.00,13.4000,5.5478,-999.0000,14.6,-999,13.6,59.0,,-999.0000,30.6990,-999.0000,13.0
2023-09-23 18:45:00,2023-09-23 11:45:00,-999.0000,49.10,-999.00,13.2000,5.3599,-999.0000,14.8,-999,13.4,59.0,,-999.0000,30.7050,-999.0000,13.1
2023-09-23 19:00:00,2023-09-23 12:00:00,-999.0000,49.10,-999.00,13.4000,5.5478,-999.0000,14.8,-999,13.6,59.0,,-999.0000,30.6990,-999.0000,13.1
2023-09-23 19:15:00,2023-09-23 12:15:00,-999.0000,49.10,-999.00,13.2000,5.6022,-999.0000,15.0,-999,13.4,60.0,,-999.0000,30.7120,-999.0000,13.1
2023-09-23 19:30:00,2023-09-23 12:30:00,-999.0000,49.10,-999.00,13.1000,5.7467,-999.0000,15.0,-999,13.3,61.0,,-999.0000,30.7150,-999.0000,13.1
2023-09-23 19:45:00,2023-09-23 12:45:00,-999.0000,49.10,-999.00,13.0000,5.8873,-999.0000,14.8,-999,13.1,62.0,,-999.0000,30.7250,-999.0000,13.0
2023-09-23 20:00:00,2023-09-23 13:00:00,-999.0000,49.10,-999.00,12.9000,5.7928,-999.0000,14.6,-999,13.1,62.0,,-999.0000,30.7320,-999.0000,13.0
2023-09-23 20:15:00,2023-09-23 13:15:00,-999.0000,49.10,-999.00,13.0000,5.8873,-999.0000,14.6,-999,13.1,62.0,,-999.0000,30.7250,-999.0000,13.1
2023-09-23 20:30:00,2023-09-23 13:30:00,-999.0000,49.10,-999.00,13.1000,5.7467,-999.0000,14.6,-999,13.1,61.0,,-999.0000,30.7220,-999.0000,13.1
2023-09-23 20:45:00,2023-09-23 13:45:00,-999.0000,49.10,-999.00,13.2000,5.3599,-999.0000,14.6,-999,13.3,59.0,,-999.0000,30.7250,-999.0000,13.1
2023-09-23 21:00:00,2023-09-23 14:00:00,-999.0000,49.10,-999.00,13.3000,5.4538,-999.0000,14.8,-999,13.4,59.0,,-999.0000,30.7220,-999.0000,13.1
2023-09-23 21:15:00,2023-09-23 14:15:00,-999.0000,49.10,-999.00,13.2000,5.1139,-999.0000,15.0,-999,13.5,58.0,,-999.0000,30.7220,-999.0000,13.1
2023-09-23 21:30:00,2023-09-23 14:30:00,-999.0000,49.10,-999.00,13.2000,5.1139,-999.0000,15.0,-999,13.3,58.0,,-999.0000,30.7220,-999.0000,13.1
2023-09-23 21:45:00,2023-09-23 14:45:00,-999.0000,49.10,-999.00,13.1000,6.6678,-999.0000,15.0,-999,13.4,65.0,,-999.0000,30.7220,-999.0000,13.1
2023-09-23 22:00:00,2023-09-23 15:00:00,-999.0000,49.10,-999.00,13.1000,6.6678,-999.0000,14.8,-999,13.4,65.0,,-999.0000,30.7190,-999.0000,13.0
2023-09-23 22:15:00,2023-09-23 15:15:00,-999.0000,49.10,-999.00,13.1000,6.8902,-999.0000,15.0,-999,13.2,66.0,,-999.0000,30.7220,-999.0000,13.0
2023-09-23 22:30:00,2023-09-23 15:30:00,-999.0000,49.10,-999.00,13.1000,5.5080,-999.0000,14.8,-999,13.0,60.0,,-999.0000,30.7250,-999.0000,13.0
2023-09-23 22:45:00,2023-09-23 15:45:00,-999.0000,49.10,-999.00,12.6000,6.4141,-999.0000,14.6,-999,12.8,66.0,,-999.0000,30.7420,-999.0000,12.9
2023-09-23 23:00:00,2023-09-23 16:00:00,-999.0000,49.10,-999.00,12.3000,6.7744,-999.0000,14.3,-999,12.4,69.0,,-999.0000,30.7390,-999.0000,12.9
2023-09-23 23:15:00,2023-09-23 16:15:00,-999.0000,49.10,-999.00,12.3000,7.3960,-999.0000,14.1,-999,12.3,72.0,,-999.0000,30.7390,-999.0000,12.9
2023-09-23 23:30:00,2023-09-23 16:30:00,-999.0000,49.10,-999.00,12.0000,8.4701,-999.0000,13.9,-999,12.2,79.0,,-999.0000,30.7390,-999.0000,12.9
2023-09-23 23:45:00,2023-09-23 16:45:00,-999.0000,49.10,-999.00,11.5000,9.0654,-999.0000,13.7,-999,11.7,85.0,,-999.0000,30.7450,-999.0000,12.8
2023-09-24 00:00:00,2023-09-23 17:00:00,-999.0000,49.10,-999.00,10.8000,9.5519,-999.0000,13.6,-999,11.0,92.0,,-999.0000,30.7520,-999.0000,12.8
2023-09-24 00:15:00,2023-09-23 17:15:00,-999.0000,49.10,-999.00,10.4000,9.1558,-999.0000,13.2,-999,10.4,92.0,,-999.0000,30.7490,-999.0000,12.8
2023-09-24 00:30:00,2023-09-23 17:30:00,-999.0000,49.10,-999.00,10.0000,9.0785,-999.0000,12.7,-999,10.0,94.0,,-999.0000,30.7490,-999.0000,12.8
2023-09-24 00:45:00,2023-09-23 17:45:00,-999.0000,49.10,-999.00,9.8000,8.8799,-999.0000,12.3,-999,9.8,94.0,,-999.0000,30.7420,-999.0000,12.7
2023-09-24 01:00:00,2023-09-23 18:00:00,-999.0000,49.10,-999.00,9.7000,8.7807,-999.0000,12.0,-999,9.6,94.0,,-999.0000,30.7450,-999.0000,12.7
2023-09-24 01:15:00,2023-09-23 18:15:00,-999.0000,49.10,-999.00,9.7000,8.7807,-999.0000,11.6,-999,9.6,94.0,,-999.0000,30.7450,-999.0000,12.7
2023-09-24 01:30:00,2023-09-23 18:30:00,-999.0000,49.10,-999.00,9.4000,8.6392,-999.0000,11.3,-999,9.4,95.0,,-999.0000,30.7390,-999.0000,12.7
2023-09-24 01:45:00,2023-09-23 18:45:00,-999.0000,49.10,-999.00,9.2000,8.4404,-999.0000,10.9,-999,9.1,95.0,,-999.0000,30.7390,-999.0000,12.7
2023-09-24 02:00:00,2023-09-23 19:00:00,-999.0000,49.10,-999.00,9.0000,8.2416,-999.0000,10.8,-999,9.0,95.0,,-999.0000,30.7390,-999.0000,12.6
2023-09-24 02:15:00,2023-09-23 19:15:00,-999.0000,49.10,-999.00,8.9000,8.1422,-999.0000,10.4,-999,8.8,95.0,,-999.0000,30.7390,-999.0000,12.6
2023-09-24 02:30:00,2023-09-23 19:30:00,-999.0000,49.10,-999.00,8.7000,7.9434,-999.0000,10.1,-999,8.6,95.0,,-999.0000,30.7390,-999.0000,12.6
2023-09-24 02:45:00,2023-09-23 19:45:00,-999.0000,49.10,-999.00,8.5000,7.8985,-999.0000,9.9,-999,8.5,96.0,,-999.0000,30.7390,-999.0000,12.6
2023-09-24 03:00:00,2023-09-23 20:00:00,-999.0000,49.10,-999.00,8.5000,7.8985,-999.0000,9.7,-999,8.5,96.0,,-999.0000,30.7420,-999.0000,12.6
2023-09-24 03:15:00,2023-09-23 20:15:00,-999.0000,49.10,-999.00,8.4000,7.7989,-999.0000,9.5,-999,8.4,96.0,,-999.0000,30.7350,-999.0000,12.6
2023-09-24 03:30:00,2023-09-23 20:30:00,-999.0000,49.10,-999.00,8.3000,7.6994,-999.0000,9.5,-999,8.2,96.0,,-999.0000,30.7390,-999.0000,12.6
2023-09-24 03:45:00,2023-09-23 20:45:00,-999.0000,49.10,-999.00,8.2000,7.7520,-999.0000,9.4,-999,8.1,97.0,,-999.0000,30.7350,-999.0000,12.6
2023-09-24 04:00:00,2023-09-23 21:00:00,-999.0000,49.10,-999.00,8.1000,7.6523,-999.0000,9.2,-999,8.0,97.0,,-999.0000,30.7350,-999.0000,12.6
2023-09-24 04:15:00,2023-09-23 21:15:00,-999.0000,49.10,-999.00,8.2000,7.7520,-999.0000,9.0,-999,8.0,97.0,,-999.0000,30.7350,-999.0000,12.5
2023-09-24 04:30:00,2023-09-23 21:30:00,-999.0000,49.10,-999.00,8.1000,7.6523,-999.0000,9.0,-999,7.9,97.0,,-999.0000,30.7390,-999.0000,12.6
2023-09-24 04:45:00,2023-09-23 21:45:00,-999.0000,49.10,-999.00,8.1000,7.6523,-999.0000,8.8,-999,7.9,97.0,,-999.0000,30.7390,-999.0000,12.5
2023-09-24 05:00:00,2023-09-23 22:00:00,-999.0000,49.10,-999.00,8.0000,7.5527,-999.0000,8.8,-999,7.9,97.0,,-999.0000,30.7350,-999.0000,12.5
2023-09-24 05:15:00,2023-09-23 22:15:00,-999.0000,49.10,-999.00,7.9000,7.4530,-999.0000,8.6,-999,7.8,97.0,,-999.0000,30.7350,-999.0000,12.5
2023-09-24 05:30:00,2023-09-23 22:30:00,-999.0000,49.10,-999.00,7.9000,7.4530,-999.0000,8.6,-999,7.8,97.0,,-999.0000,30.7320,-999.0000,12.5
2023-09-24 05:45:00,2023-09-23 22:45:00,-999.0000,49.10,-999.00,7.9000,7.4530,-999.0000,8.6,-999,7.6,97.0,,-999.0000,30.7320,-999.0000,12.5
2023-09-24 06:00:00,2023-09-23 23:00:00,-999.0000,49.10,-999.00,7.9000,7.4530,-999.0000,8.5,-999,7.6,97.0,,-999.0000,30.7320,-999.0000,12.5
2023-09-24 06:15:00,2023-09-23 23:15:00,-999.0000,49.10,-999.00,7.9000,7.4530,-999.0000,8.5,-999,7.6,97.0,,-999.0000,30.7250,-999.0000,12.5
2023-09-24 06:30:00,2023-09-23 23:30:00,-999.0000,49.10,-999.00,7.8000,7.3534,-999.0000,8.5,-999,7.6,97.0,,-999.0000,30.7290,-999.0000,12.5
2023-09-24 06:45:00,2023-09-23 23:45:00,-999.0000,49.10,-999.00,7.8000,7.3534,-999.0000,8.3,-999,7.6,97.0,,-999.0000,30.7250,-999.0000,12.5